Wetterdaten: Mittwoch, 20.11.2013
Datum Zeit Temp. Aussen +5cm Feuchte Auss Luftdruck Regen Sonnenschein Regendauer UV Solar Windben
20.11.2013 00:00 5,3 C 3,9 C 97 % 1009,2 hPa 0,0 l/m 0 min 0 min 0,0 UV-I 0 W/m 16,5 km/h (3 Bft)
20.11.2013 00:02 5,3 C 3,9 C 97 % 1009,2 hPa 0,0 l/m 0 min 0 min 0,0 UV-I 0 W/m 20,6 km/h (4 Bft)
20.11.2013 00:06 5,2 C 3,9 C 97 % 1009,3 hPa 0,0 l/m 0 min 0 min 0,0 UV-I 0 W/m 12,3 km/h (3 Bft)
20.11.2013 00:08 5,2 C 3,9 C 97 % 1009,3 hPa 0,0 l/m 0 min 0 min 0,0 UV-I 0 W/m 0,0 km/h (0 Bft)
20.11.2013 00:10 5,2 C 3,9 C 97 % 1009,3 hPa 0,0 l/m 0 min 0 min 0,0 UV-I 0 W/m 8,2 km/h (2 Bft)
20.11.2013 00:12 5,2 C 3,9 C 96 % 1009,3 hPa 0,0 l/m 0 min 0 min 0,0 UV-I 0 W/m 16,5 km/h (3 Bft)
20.11.2013 00:14 5,2 C 3,9 C 96 % 1009,3 hPa 0,0 l/m 0 min 0 min 0,0 UV-I 0 W/m 4,2 km/h (1 Bft)
20.11.2013 00:16 5,2 C 3,9 C 96 % 1009,3 hPa 0,0 l/m 0 min 0 min 0,0 UV-I 0 W/m 0,0 km/h (0 Bft)
20.11.2013 00:18 5,2 C 3,9 C 96 % 1009,2 hPa 0,0 l/m 0 min 0 min 0,0 UV-I 0 W/m 16,5 km/h (3 Bft)
20.11.2013 00:20 5,2 C 3,3 C 96 % 1009,2 hPa 0,0 l/m 0 min 0 min 0,0 UV-I 0 W/m 16,5 km/h (3 Bft)
20.11.2013 00:22 5,2 C 3,3 C 96 % 1009,2 hPa 0,0 l/m 0 min 0 min 0,0 UV-I 0 W/m 16,5 km/h (3 Bft)
20.11.2013 00:24 5,1 C 3,3 C 96 % 1009,2 hPa 0,0 l/m 0 min 0 min 0,0 UV-I 0 W/m 8,2 km/h (2 Bft)
20.11.2013 00:26 5,1 C 3,3 C 96 % 1009,2 hPa 0,0 l/m 0 min 0 min 0,0 UV-I 0 W/m 16,5 km/h (3 Bft)
20.11.2013 00:28 5,1 C 3,3 C 96 % 1009,3 hPa 0,0 l/m 0 min 0 min 0,0 UV-I 0 W/m 16,5 km/h (3 Bft)
20.11.2013 00:30 5,1 C 3,3 C 96 % 1009,2 hPa 0,0 l/m 0 min 0 min 0,0 UV-I 0 W/m 12,3 km/h (3 Bft)
20.11.2013 00:32 5,1 C 3,3 C 96 % 1009,2 hPa 0,0 l/m 0 min 0 min 0,0 UV-I 0 W/m 16,5 km/h (3 Bft)
20.11.2013 00:34 5,1 C 3,3 C 96 % 1009,2 hPa 0,0 l/m 0 min 0 min 0,0 UV-I 0 W/m 12,3 km/h (3 Bft)
20.11.2013 00:36 5,0 C 3,3 C 96 % 1009,2 hPa 0,0 l/m 0 min 0 min 0,0 UV-I 0 W/m 12,3 km/h (3 Bft)
20.11.2013 00:38 5,0 C 3,3 C 96 % 1009,2 hPa 0,0 l/m 0 min 0 min 0,0 UV-I 0 W/m 0,0 km/h (0 Bft)
20.11.2013 00:40 5,0 C 3,3 C 96 % 1009,2 hPa 0,0 l/m 0 min 0 min 0,0 UV-I 0 W/m 12,3 km/h (3 Bft)
20.11.2013 00:42 5,0 C 3,3 C 96 % 1009,2 hPa 0,0 l/m 0 min 0 min 0,0 UV-I 0 W/m 8,2 km/h (2 Bft)
20.11.2013 00:44 5,0 C 3,3 C 96 % 1009,3 hPa 0,0 l/m 0 min 0 min 0,0 UV-I 0 W/m 16,5 km/h (3 Bft)
20.11.2013 00:46 4,9 C 3,3 C 96 % 1009,1 hPa 0,0 l/m 0 min 0 min 0,0 UV-I 0 W/m 8,2 km/h (2 Bft)
20.11.2013 00:48 4,9 C 3,3 C 96 % 1009,1 hPa 0,0 l/m 0 min 0 min 0,0 UV-I 0 W/m 4,2 km/h (1 Bft)
20.11.2013 00:50 4,9 C 3,3 C 96 % 1009,2 hPa 0,0 l/m 0 min 0 min 0,0 UV-I 0 W/m 16,5 km/h (3 Bft)
20.11.2013 00:52 4,9 C 3,3 C 96 % 1009,2 hPa 0,0 l/m 0 min 0 min 0,0 UV-I 0 W/m 20,6 km/h (4 Bft)
20.11.2013 00:54 4,9 C 3,3 C 96 % 1009,1 hPa 0,0 l/m 0 min 0 min 0,0 UV-I 0 W/m 16,5 km/h (3 Bft)
20.11.2013 00:56 4,9 C 3,3 C 96 % 1009,2 hPa 0,0 l/m 0 min 0 min 0,0 UV-I 0 W/m 0,0 km/h (0 Bft)
20.11.2013 00:58 4,8 C 3,3 C 96 % 1009,1 hPa 0,0 l/m 0 min 0 min 0,0 UV-I 0 W/m 12,3 km/h (3 Bft)
20.11.2013 01:00 4,8 C 3,3 C 95 % 1009,1 hPa 0,0 l/m 0 min 0 min 0,0 UV-I 0 W/m 20,6 km/h (4 Bft)
20.11.2013 01:02 4,8 C 3,3 C 95 % 1009,2 hPa 0,0 l/m 0 min 0 min 0,0 UV-I 0 W/m 20,6 km/h (4 Bft)
20.11.2013 01:04 4,8 C 2,8 C 95 % 1009,1 hPa 0,0 l/m 0 min 0 min 0,0 UV-I 0 W/m 16,5 km/h (3 Bft)
20.11.2013 01:06 4,8 C 2,8 C 95 % 1009,1 hPa 0,0 l/m 0 min 0 min 0,0 UV-I 0 W/m 12,3 km/h (3 Bft)
20.11.2013 01:08 4,8 C 2,8 C 95 % 1009,0 hPa 0,0 l/m 0 min 0 min 0,0 UV-I 0 W/m 12,3 km/h (3 Bft)
20.11.2013 01:10 4,7 C 2,8 C 95 % 1009,0 hPa 0,0 l/m 0 min 0 min 0,0 UV-I 0 W/m 0,0 km/h (0 Bft)
20.11.2013 01:12 4,7 C 2,8 C 95 % 1009,1 hPa 0,0 l/m 0 min 0 min 0,0 UV-I 0 W/m 8,2 km/h (2 Bft)
20.11.2013 01:14 4,7 C 2,8 C 95 % 1009,1 hPa 0,0 l/m 0 min 0 min 0,0 UV-I 0 W/m 12,3 km/h (3 Bft)
20.11.2013 01:16 4,7 C 2,8 C 95 % 1009,1 hPa 0,0 l/m 0 min 0 min 0,0 UV-I 0 W/m 16,5 km/h (3 Bft)
20.11.2013 01:18 4,7 C 2,8 C 95 % 1009,2 hPa 0,0 l/m 0 min 0 min 0,0 UV-I 0 W/m 8,2 km/h (2 Bft)
20.11.2013 01:20 4,6 C 2,8 C 95 % 1009,1 hPa 0,0 l/m 0 min 0 min 0,0 UV-I 0 W/m 8,2 km/h (2 Bft)
20.11.2013 01:22 4,6 C 2,8 C 95 % 1009,1 hPa 0,0 l/m 0 min 0 min 0,0 UV-I 0 W/m 8,2 km/h (2 Bft)
20.11.2013 01:24 4,6 C 2,8 C 95 % 1009,1 hPa 0,0 l/m 0 min 0 min 0,0 UV-I 0 W/m 8,2 km/h (2 Bft)
20.11.2013 01:26 4,6 C 2,8 C 95 % 1009,1 hPa 0,0 l/m 0 min 0 min 0,0 UV-I 0 W/m 0,0 km/h (0 Bft)
20.11.2013 01:28 4,5 C 2,8 C 95 % 1009,2 hPa 0,0 l/m 0 min 0 min 0,0 UV-I 0 W/m 12,3 km/h (3 Bft)
20.11.2013 01:30 4,5 C 2,8 C 94 % 1009,1 hPa 0,0 l/m 0 min 0 min 0,0 UV-I 0 W/m 16,5 km/h (3 Bft)
20.11.2013 01:32 4,5 C 2,8 C 94 % 1009,3 hPa 0,0 l/m 0 min 0 min 0,0 UV-I 0 W/m 16,5 km/h (3 Bft)
20.11.2013 01:34 4,4 C 2,8 C 94 % 1009,3 hPa 0,0 l/m 0 min 0 min 0,0 UV-I 0 W/m 16,5 km/h (3 Bft)
20.11.2013 01:36 4,4 C 2,2 C 94 % 1009,4 hPa 0,0 l/m 0 min 0 min 0,0 UV-I 0 W/m 0,0 km/h (0 Bft)
20.11.2013 01:38 4,4 C 2,2 C 94 % 1009,3 hPa 0,0 l/m 0 min 0 min 0,0 UV-I 0 W/m 0,0 km/h (0 Bft)
20.11.2013 01:40 4,4 C 2,2 C 94 % 1009,3 hPa 0,0 l/m 0 min 0 min 0,0 UV-I 0 W/m 0,0 km/h (0 Bft)
20.11.2013 01:42 4,3 C 2,2 C 94 % 1009,3 hPa 0,0 l/m 0 min 0 min 0,0 UV-I 0 W/m 8,2 km/h (2 Bft)
20.11.2013 01:44 4,3 C 2,2 C 94 % 1009,3 hPa 0,0 l/m 0 min 0 min 0,0 UV-I 0 W/m 8,2 km/h (2 Bft)
20.11.2013 01:46 4,3 C 2,2 C 94 % 1009,2 hPa 0,0 l/m 0 min 0 min 0,0 UV-I 0 W/m 4,2 km/h (1 Bft)
20.11.2013 01:48 4,2 C 2,2 C 94 % 1009,3 hPa 0,0 l/m 0 min 0 min 0,0 UV-I 0 W/m 0,0 km/h (0 Bft)
20.11.2013 01:50 4,2 C 2,2 C 94 % 1009,3 hPa 0,0 l/m 0 min 0 min 0,0 UV-I 0 W/m 0,0 km/h (0 Bft)
20.11.2013 01:52 4,2 C 2,2 C 94 % 1009,3 hPa 0,0 l/m 0 min 0 min 0,0 UV-I 0 W/m 4,2 km/h (1 Bft)
20.11.2013 01:54 4,2 C 2,2 C 94 % 1009,3 hPa 0,0 l/m 0 min 0 min 0,0 UV-I 0 W/m 0,0 km/h (0 Bft)
20.11.2013 01:56 4,1 C 2,2 C 94 % 1009,3 hPa 0,0 l/m 0 min 0 min 0,0 UV-I 0 W/m 0,0 km/h (0 Bft)
20.11.2013 01:58 4,1 C 2,2 C 94 % 1009,3 hPa 0,0 l/m 0 min 0 min 0,0 UV-I 0 W/m 0,0 km/h (0 Bft)
20.11.2013 02:00 4,1 C 1,7 C 94 % 1009,3 hPa 0,0 l/m 0 min 0 min 0,0 UV-I 0 W/m 0,0 km/h (0 Bft)
20.11.2013 02:02 4,0 C 1,7 C 94 % 1009,3 hPa 0,0 l/m 0 min 0 min 0,0 UV-I 0 W/m 4,2 km/h (1 Bft)
20.11.2013 02:04 4,0 C 1,7 C 94 % 1009,3 hPa 0,0 l/m 0 min 0 min 0,0 UV-I 0 W/m 0,0 km/h (0 Bft)
20.11.2013 02:06 3,9 C 1,7 C 94 % 1009,2 hPa 0,0 l/m 0 min 0 min 0,0 UV-I 0 W/m 12,3 km/h (3 Bft)
20.11.2013 02:08 3,9 C 1,7 C 94 % 1009,2 hPa 0,0 l/m 0 min 0 min 0,0 UV-I 0 W/m 0,0 km/h (0 Bft)
20.11.2013 02:10 3,9 C 1,7 C 94 % 1009,3 hPa 0,0 l/m 0 min 0 min 0,0 UV-I 0 W/m 0,0 km/h (0 Bft)
20.11.2013 02:12 3,8 C 1,7 C 94 % 1009,3 hPa 0,0 l/m 0 min 0 min 0,0 UV-I 0 W/m 0,0 km/h (0 Bft)
20.11.2013 02:14 3,8 C 1,7 C 94 % 1009,3 hPa 0,0 l/m 0 min 0 min 0,0 UV-I 0 W/m 0,0 km/h (0 Bft)
20.11.2013 02:16 3,8 C 1,7 C 94 % 1009,3 hPa 0,0 l/m 0 min 0 min 0,0 UV-I 0 W/m 8,2 km/h (2 Bft)
20.11.2013 02:18 3,7 C 1,7 C 94 % 1009,3 hPa 0,0 l/m 0 min 0 min 0,0 UV-I 0 W/m 4,2 km/h (1 Bft)
20.11.2013 02:20 3,7 C 1,7 C 94 % 1009,4 hPa 0,0 l/m 0 min 0 min 0,0 UV-I 0 W/m 0,0 km/h (0 Bft)
20.11.2013 02:22 3,7 C 1,7 C 94 % 1009,4 hPa 0,0 l/m 0 min 0 min 0,0 UV-I 0 W/m 8,2 km/h (2 Bft)
20.11.2013 02:24 3,6 C 1,7 C 94 % 1009,4 hPa 0,0 l/m 0 min 0 min 0,0 UV-I 0 W/m 0,0 km/h (0 Bft)
20.11.2013 02:26 3,6 C 1,7 C 93 % 1009,4 hPa 0,0 l/m 0 min 0 min 0,0 UV-I 0 W/m 0,0 km/h (0 Bft)
20.11.2013 02:28 3,5 C 1,7 C 93 % 1009,4 hPa 0,0 l/m 0 min 0 min 0,0 UV-I 0 W/m 0,0 km/h (0 Bft)
20.11.2013 02:30 3,5 C 1,7 C 93 % 1009,4 hPa 0,0 l/m 0 min 0 min 0,0 UV-I 0 W/m 8,2 km/h (2 Bft)
20.11.2013 02:32 3,4 C 1,7 C 93 % 1009,4 hPa 0,0 l/m 0 min 0 min 0,0 UV-I 0 W/m 0,0 km/h (0 Bft)
20.11.2013 02:34 3,4 C 1,1 C 93 % 1009,4 hPa 0,0 l/m 0 min 0 min 0,0 UV-I 0 W/m 0,0 km/h (0 Bft)
20.11.2013 02:36 3,3 C 1,1 C 94 % 1009,4 hPa 0,0 l/m 0 min 0 min 0,0 UV-I 0 W/m 0,0 km/h (0 Bft)
20.11.2013 02:38 3,3 C 1,1 C 94 % 1009,5 hPa 0,0 l/m 0 min 0 min 0,0 UV-I 0 W/m 0,0 km/h (0 Bft)
20.11.2013 02:40 3,2 C 1,1 C 94 % 1009,5 hPa 0,0 l/m 0 min 0 min 0,0 UV-I 0 W/m 4,2 km/h (1 Bft)
20.11.2013 02:42 3,2 C 1,1 C 94 % 1009,5 hPa 0,0 l/m 0 min 0 min 0,0 UV-I 0 W/m 0,0 km/h (0 Bft)
20.11.2013 02:44 3,2 C 1,1 C 93 % 1009,5 hPa 0,0 l/m 0 min 0 min 0,0 UV-I 0 W/m 4,2 km/h (1 Bft)
20.11.2013 02:46 3,2 C 1,1 C 93 % 1009,4 hPa 0,0 l/m 0 min 0 min 0,0 UV-I 0 W/m 0,0 km/h (0 Bft)
20.11.2013 02:48 3,1 C 1,1 C 93 % 1009,4 hPa 0,0 l/m 0 min 0 min 0,0 UV-I 0 W/m 0,0 km/h (0 Bft)
20.11.2013 02:50 3,1 C 1,1 C 93 % 1009,4 hPa 0,0 l/m 0 min 0 min 0,0 UV-I 0 W/m 0,0 km/h (0 Bft)
20.11.2013 02:52 3,1 C 1,1 C 93 % 1009,5 hPa 0,0 l/m 0 min 0 min 0,0 UV-I 0 W/m 0,0 km/h (0 Bft)
20.11.2013 02:54 3,0 C 1,1 C 94 % 1009,5 hPa 0,0 l/m 0 min 0 min 0,0 UV-I 0 W/m 0,0 km/h (0 Bft)
20.11.2013 02:56 3,0 C 1,1 C 94 % 1009,5 hPa 0,0 l/m 0 min 0 min 0,0 UV-I 0 W/m 0,0 km/h (0 Bft)
20.11.2013 02:58 2,9 C 1,1 C 94 % 1009,5 hPa 0,0 l/m 0 min 0 min 0,0 UV-I 0 W/m 4,2 km/h (1 Bft)
20.11.2013 03:00 2,9 C 1,1 C 94 % 1009,5 hPa 0,0 l/m 0 min 0 min 0,0 UV-I 0 W/m 0,0 km/h (0 Bft)
20.11.2013 03:02 2,9 C 1,1 C 94 % 1009,4 hPa 0,0 l/m 0 min 0 min 0,0 UV-I 0 W/m 0,0 km/h (0 Bft)
20.11.2013 03:04 2,8 C 1,1 C 94 % 1009,4 hPa 0,0 l/m 0 min 0 min 0,0 UV-I 0 W/m 0,0 km/h (0 Bft)
20.11.2013 03:06 2,8 C 1,1 C 93 % 1009,4 hPa 0,0 l/m 0 min 0 min 0,0 UV-I 0 W/m 0,0 km/h (0 Bft)
20.11.2013 03:08 2,8 C 0,6 C 93 % 1009,4 hPa 0,0 l/m 0 min 0 min 0,0 UV-I 0 W/m 0,0 km/h (0 Bft)
20.11.2013 03:10 2,7 C 0,6 C 93 % 1009,4 hPa 0,0 l/m 0 min 0 min 0,0 UV-I 0 W/m 0,0 km/h (0 Bft)
20.11.2013 03:12 2,7 C 0,6 C 93 % 1009,5 hPa 0,0 l/m 0 min 0 min 0,0 UV-I 0 W/m 0,0 km/h (0 Bft)
20.11.2013 03:14 2,7 C 0,6 C 93 % 1009,4 hPa 0,0 l/m 0 min 0 min 0,0 UV-I 0 W/m 0,0 km/h (0 Bft)
20.11.2013 03:16 2,7 C 0,6 C 94 % 1009,4 hPa 0,0 l/m 0 min 0 min 0,0 UV-I 0 W/m 0,0 km/h (0 Bft)
20.11.2013 03:18 2,6 C 0,6 C 94 % 1009,4 hPa 0,0 l/m 0 min 0 min 0,0 UV-I 0 W/m 0,0 km/h (0 Bft)
20.11.2013 03:20 2,6 C 0,6 C 94 % 1009,4 hPa 0,0 l/m 0 min 0 min 0,0 UV-I 0 W/m 0,0 km/h (0 Bft)
20.11.2013 03:22 2,6 C 0,6 C 94 % 1009,4 hPa 0,0 l/m 0 min 0 min 0,0 UV-I 0 W/m 0,0 km/h (0 Bft)
20.11.2013 03:24 2,5 C 0,6 C 93 % 1009,3 hPa 0,0 l/m 0 min 0 min 0,0 UV-I 0 W/m 0,0 km/h (0 Bft)
20.11.2013 03:26 2,4 C 0,6 C 93 % 1009,3 hPa 0,0 l/m 0 min 0 min 0,0 UV-I 0 W/m 0,0 km/h (0 Bft)
20.11.2013 03:28 2,4 C 0,6 C 93 % 1009,4 hPa 0,0 l/m 0 min 0 min 0,0 UV-I 0 W/m 0,0 km/h (0 Bft)
20.11.2013 03:30 2,4 C 0,6 C 93 % 1009,3 hPa 0,0 l/m 0 min 0 min 0,0 UV-I 0 W/m 0,0 km/h (0 Bft)
20.11.2013 03:32 2,4 C 0,6 C 93 % 1009,4 hPa 0,0 l/m 0 min 0 min 0,0 UV-I 0 W/m 0,0 km/h (0 Bft)
20.11.2013 03:34 2,3 C 0,6 C 94 % 1009,3 hPa 0,0 l/m 0 min 0 min 0,0 UV-I 0 W/m 0,0 km/h (0 Bft)
20.11.2013 03:36 2,3 C 0,6 C 94 % 1009,4 hPa 0,0 l/m 0 min 0 min 0,0 UV-I 0 W/m 0,0 km/h (0 Bft)
20.11.2013 03:38 2,3 C 0,6 C 94 % 1009,3 hPa 0,0 l/m 0 min 0 min 0,0 UV-I 0 W/m 0,0 km/h (0 Bft)
20.11.2013 03:40 2,2 C 0,6 C 94 % 1009,3 hPa 0,0 l/m 0 min 0 min 0,0 UV-I 0 W/m 0,0 km/h (0 Bft)
20.11.2013 03:42 2,2 C 0,6 C 94 % 1009,4 hPa 0,0 l/m 0 min 0 min 0,0 UV-I 0 W/m 0,0 km/h (0 Bft)
20.11.2013 03:44 2,2 C 0,0 C 94 % 1009,4 hPa 0,0 l/m 0 min 0 min 0,0 UV-I 0 W/m 0,0 km/h (0 Bft)
20.11.2013 03:46 2,2 C 0,0 C 93 % 1009,4 hPa 0,0 l/m 0 min 0 min 0,0 UV-I 0 W/m 0,0 km/h (0 Bft)
20.11.2013 03:48 2,1 C 0,0 C 93 % 1009,5 hPa 0,0 l/m 0 min 0 min 0,0 UV-I 0 W/m 0,0 km/h (0 Bft)
20.11.2013 03:50 2,1 C 0,0 C 93 % 1009,5 hPa 0,0 l/m 0 min 0 min 0,0 UV-I 0 W/m 0,0 km/h (0 Bft)
20.11.2013 03:52 2,1 C 0,0 C 93 % 1009,4 hPa 0,0 l/m 0 min 0 min 0,0 UV-I 0 W/m 0,0 km/h (0 Bft)
20.11.2013 03:54 2,0 C 0,0 C 93 % 1009,4 hPa 0,0 l/m 0 min 0 min 0,0 UV-I 0 W/m 0,0 km/h (0 Bft)
20.11.2013 03:56 2,0 C 0,0 C 93 % 1009,4 hPa 0,0 l/m 0 min 0 min 0,0 UV-I 0 W/m 0,0 km/h (0 Bft)
20.11.2013 03:58 1,9 C 0,0 C 93 % 1009,4 hPa 0,0 l/m 0 min 0 min 0,0 UV-I 0 W/m 0,0 km/h (0 Bft)
20.11.2013 04:00 1,9 C 0,0 C 94 % 1009,4 hPa 0,0 l/m 0 min 0 min 0,0 UV-I 0 W/m 0,0 km/h (0 Bft)
20.11.2013 04:03 1,9 C 0,0 C 94 % 1009,4 hPa 0,0 l/m 0 min 0 min 0,0 UV-I 0 W/m 0,0 km/h (0 Bft)
20.11.2013 04:05 1,8 C 0,0 C 94 % 1009,3 hPa 0,0 l/m 0 min 0 min 0,0 UV-I 0 W/m 0,0 km/h (0 Bft)
20.11.2013 04:10 1,8 C 0,0 C 93 % 1009,3 hPa 0,0 l/m 0 min 0 min 0,0 UV-I 0 W/m 4,2 km/h (1 Bft)
20.11.2013 04:15 1,7 C 0,0 C 93 % 1009,3 hPa 0,0 l/m 0 min 0 min 0,0 UV-I 0 W/m 0,0 km/h (0 Bft)
20.11.2013 04:20 1,6 C 0,0 C 94 % 1009,3 hPa 0,0 l/m 0 min 0 min 0,0 UV-I 0 W/m 8,2 km/h (2 Bft)
20.11.2013 04:25 1,6 C 0,0 C 94 % 1009,3 hPa 0,0 l/m 0 min 0 min 0,0 UV-I 0 W/m 0,0 km/h (0 Bft)
20.11.2013 04:30 1,5 C 0,0 C 94 % 1009,3 hPa 0,0 l/m 0 min 0 min 0,0 UV-I 0 W/m 0,0 km/h (0 Bft)
20.11.2013 04:35 1,4 C 0,0 C 94 % 1009,3 hPa 0,0 l/m 0 min 0 min 0,0 UV-I 0 W/m 0,0 km/h (0 Bft)
20.11.2013 04:40 1,4 C 0,6 C 94 % 1009,3 hPa 0,0 l/m 0 min 0 min 0,0 UV-I 0 W/m 4,2 km/h (1 Bft)
20.11.2013 04:45 1,4 C 0,6 C 94 % 1009,3 hPa 0,0 l/m 0 min 0 min 0,0 UV-I 0 W/m 0,0 km/h (0 Bft)
20.11.2013 04:50 1,4 C 0,6 C 94 % 1009,3 hPa 0,0 l/m 0 min 0 min 0,0 UV-I 0 W/m 0,0 km/h (0 Bft)
20.11.2013 04:55 1,4 C 0,0 C 94 % 1009,2 hPa 0,0 l/m 0 min 0 min 0,0 UV-I 0 W/m 0,0 km/h (0 Bft)
20.11.2013 05:00 1,4 C 0,0 C 94 % 1009,1 hPa 0,0 l/m 0 min 0 min 0,0 UV-I 0 W/m 0,0 km/h (0 Bft)
20.11.2013 05:05 1,3 C 0,0 C 94 % 1009,1 hPa 0,0 l/m 0 min 0 min 0,0 UV-I 0 W/m 0,0 km/h (0 Bft)
20.11.2013 05:10 1,3 C 0,0 C 94 % 1009,1 hPa 0,0 l/m 0 min 0 min 0,0 UV-I 0 W/m 4,2 km/h (1 Bft)
20.11.2013 05:15 1,3 C -0,6 C 94 % 1009,1 hPa 0,0 l/m 0 min 0 min 0,0 UV-I 0 W/m 0,0 km/h (0 Bft)
20.11.2013 05:20 1,2 C -0,6 C 95 % 1009,1 hPa 0,0 l/m 0 min 0 min 0,0 UV-I 0 W/m 0,0 km/h (0 Bft)
20.11.2013 05:25 1,2 C -0,6 C 95 % 1009,1 hPa 0,0 l/m 0 min 0 min 0,0 UV-I 0 W/m 0,0 km/h (0 Bft)
20.11.2013 05:30 1,2 C -0,6 C 95 % 1009,0 hPa 0,0 l/m 0 min 0 min 0,0 UV-I 0 W/m 0,0 km/h (0 Bft)
20.11.2013 05:35 1,1 C -0,6 C 95 % 1009,1 hPa 0,0 l/m 0 min 0 min 0,0 UV-I 0 W/m 0,0 km/h (0 Bft)
20.11.2013 05:40 1,1 C 0,0 C 95 % 1009,0 hPa 0,0 l/m 0 min 0 min 0,0 UV-I 0 W/m 0,0 km/h (0 Bft)
20.11.2013 05:45 1,0 C -0,6 C 95 % 1009,0 hPa 0,0 l/m 0 min 0 min 0,0 UV-I 0 W/m 0,0 km/h (0 Bft)
20.11.2013 05:50 1,0 C -0,6 C 95 % 1009,1 hPa 0,0 l/m 0 min 0 min 0,0 UV-I 0 W/m 0,0 km/h (0 Bft)
20.11.2013 05:55 0,9 C 0,0 C 95 % 1009,0 hPa 0,0 l/m 0 min 0 min 0,0 UV-I 0 W/m 0,0 km/h (0 Bft)
20.11.2013 06:00 0,9 C 0,0 C 95 % 1008,9 hPa 0,0 l/m 0 min 0 min 0,0 UV-I 0 W/m 0,0 km/h (0 Bft)
20.11.2013 06:05 0,9 C 0,0 C 95 % 1008,9 hPa 0,0 l/m 0 min 0 min 0,0 UV-I 0 W/m 0,0 km/h (0 Bft)
20.11.2013 06:10 0,9 C -0,6 C 95 % 1008,8 hPa 0,0 l/m 0 min 0 min 0,0 UV-I 0 W/m 0,0 km/h (0 Bft)
20.11.2013 06:15 0,9 C -0,6 C 95 % 1008,8 hPa 0,0 l/m 0 min 0 min 0,0 UV-I 0 W/m 0,0 km/h (0 Bft)
20.11.2013 06:20 0,9 C -0,6 C 95 % 1008,9 hPa 0,0 l/m 0 min 0 min 0,0 UV-I 0 W/m 0,0 km/h (0 Bft)
20.11.2013 06:25 0,8 C -0,6 C 95 % 1008,9 hPa 0,0 l/m 0 min 0 min 0,0 UV-I 0 W/m 0,0 km/h (0 Bft)
20.11.2013 06:30 0,8 C -0,6 C 95 % 1008,8 hPa 0,0 l/m 0 min 0 min 0,0 UV-I 0 W/m 0,0 km/h (0 Bft)
20.11.2013 06:35 0,8 C -0,6 C 95 % 1008,9 hPa 0,0 l/m 0 min 0 min 0,0 UV-I 0 W/m 0,0 km/h (0 Bft)
20.11.2013 06:36 0,8 C -0,6 C 95 % 1008,9 hPa 0,0 l/m 0 min 0 min 0,0 UV-I 0 W/m 0,0 km/h (0 Bft)
20.11.2013 06:38 0,7 C -0,6 C 95 % 1008,8 hPa 0,0 l/m 0 min 0 min 0,0 UV-I 0 W/m 0,0 km/h (0 Bft)
20.11.2013 06:40 0,7 C -0,6 C 95 % 1008,9 hPa 0,0 l/m 0 min 0 min 0,0 UV-I 0 W/m 0,0 km/h (0 Bft)
20.11.2013 06:42 0,7 C -0,6 C 95 % 1008,8 hPa 0,0 l/m 0 min 0 min 0,0 UV-I 0 W/m 0,0 km/h (0 Bft)
20.11.2013 06:44 0,7 C -0,6 C 95 % 1008,8 hPa 0,0 l/m 0 min 0 min 0,0 UV-I 0 W/m 0,0 km/h (0 Bft)
20.11.2013 06:46 0,7 C -0,6 C 95 % 1008,9 hPa 0,0 l/m 0 min 0 min 0,0 UV-I 0 W/m 0,0 km/h (0 Bft)
20.11.2013 06:48 0,7 C -0,6 C 95 % 1008,9 hPa 0,0 l/m 0 min 0 min 0,0 UV-I 0 W/m 0,0 km/h (0 Bft)
20.11.2013 06:50 0,6 C -0,6 C 95 % 1008,8 hPa 0,0 l/m 0 min 0 min 0,0 UV-I 0 W/m 0,0 km/h (0 Bft)
20.11.2013 06:55 0,6 C -0,6 C 95 % 1008,8 hPa 0,0 l/m 0 min 0 min 0,0 UV-I 0 W/m 0,0 km/h (0 Bft)
20.11.2013 07:00 0,5 C -0,6 C 95 % 1008,9 hPa 0,0 l/m 0 min 0 min 0,0 UV-I 0 W/m 0,0 km/h (0 Bft)
20.11.2013 07:02 0,5 C -0,6 C 95 % 1008,9 hPa 0,0 l/m 0 min 0 min 0,0 UV-I 0 W/m 0,0 km/h (0 Bft)
20.11.2013 07:04 0,5 C -0,6 C 95 % 1008,9 hPa 0,0 l/m 0 min 0 min 0,0 UV-I 0 W/m 0,0 km/h (0 Bft)
20.11.2013 07:06 0,5 C -0,6 C 95 % 1008,9 hPa 0,0 l/m 0 min 0 min 0,0 UV-I 0 W/m 0,0 km/h (0 Bft)
20.11.2013 07:08 0,5 C -0,6 C 95 % 1008,9 hPa 0,0 l/m 0 min 0 min 0,0 UV-I 0 W/m 0,0 km/h (0 Bft)
20.11.2013 07:10 0,5 C -0,6 C 95 % 1008,9 hPa 0,0 l/m 0 min 0 min 0,0 UV-I 0 W/m 0,0 km/h (0 Bft)
20.11.2013 07:12 0,5 C -0,6 C 95 % 1008,9 hPa 0,0 l/m 0 min 0 min 0,0 UV-I 0 W/m 0,0 km/h (0 Bft)
20.11.2013 07:14 0,5 C -0,6 C 95 % 1008,9 hPa 0,0 l/m 0 min 0 min 0,0 UV-I 0 W/m 0,0 km/h (0 Bft)
20.11.2013 07:16 0,5 C -1,1 C 95 % 1008,9 hPa 0,0 l/m 0 min 0 min 0,0 UV-I 0 W/m 0,0 km/h (0 Bft)
20.11.2013 07:18 0,5 C -1,1 C 95 % 1008,8 hPa 0,0 l/m 0 min 0 min 0,0 UV-I 0 W/m 0,0 km/h (0 Bft)
20.11.2013 07:20 0,5 C -1,1 C 95 % 1008,8 hPa 0,0 l/m 0 min 0 min 0,0 UV-I 0 W/m 0,0 km/h (0 Bft)
20.11.2013 07:22 0,5 C -1,1 C 95 % 1008,8 hPa 0,0 l/m 0 min 0 min 0,0 UV-I 0 W/m 0,0 km/h (0 Bft)
20.11.2013 07:24 0,4 C -1,1 C 95 % 1008,8 hPa 0,0 l/m 0 min 0 min 0,0 UV-I 0 W/m 0,0 km/h (0 Bft)
20.11.2013 07:26 0,4 C -1,1 C 95 % 1008,8 hPa 0,0 l/m 0 min 0 min 0,0 UV-I 0 W/m 0,0 km/h (0 Bft)
20.11.2013 07:28 0,4 C -1,1 C 95 % 1008,8 hPa 0,0 l/m 0 min 0 min 0,0 UV-I 0 W/m 0,0 km/h (0 Bft)
20.11.2013 07:30 0,4 C -1,1 C 95 % 1008,9 hPa 0,0 l/m 0 min 0 min 0,0 UV-I 0 W/m 0,0 km/h (0 Bft)
20.11.2013 07:32 0,4 C -1,1 C 95 % 1008,8 hPa 0,0 l/m 0 min 0 min 0,0 UV-I 0 W/m 0,0 km/h (0 Bft)
20.11.2013 07:34 0,4 C -1,1 C 95 % 1008,8 hPa 0,0 l/m 0 min 0 min 0,0 UV-I 0 W/m 0,0 km/h (0 Bft)
20.11.2013 07:36 0,4 C -1,1 C 95 % 1008,8 hPa 0,0 l/m 0 min 0 min 0,0 UV-I 0 W/m 0,0 km/h (0 Bft)
20.11.2013 07:38 0,4 C -1,1 C 95 % 1008,8 hPa 0,0 l/m 0 min 0 min 0,0 UV-I 0 W/m 0,0 km/h (0 Bft)
20.11.2013 07:40 0,3 C -1,1 C 95 % 1008,8 hPa 0,0 l/m 0 min 0 min 0,0 UV-I 0 W/m 0,0 km/h (0 Bft)
20.11.2013 07:42 0,3 C -1,1 C 95 % 1008,8 hPa 0,0 l/m 0 min 0 min 0,0 UV-I 0 W/m 0,0 km/h (0 Bft)
20.11.2013 07:44 0,3 C -1,1 C 95 % 1008,8 hPa 0,0 l/m 0 min 0 min 0,0 UV-I 0 W/m 0,0 km/h (0 Bft)
20.11.2013 07:46 0,3 C -1,1 C 95 % 1008,8 hPa 0,0 l/m 0 min 0 min 0,0 UV-I 0 W/m 0,0 km/h (0 Bft)
20.11.2013 07:48 0,3 C -1,1 C 95 % 1008,8 hPa 0,0 l/m 0 min 0 min 0,0 UV-I 0 W/m 0,0 km/h (0 Bft)
20.11.2013 07:50 0,3 C -1,1 C 95 % 1008,8 hPa 0,0 l/m 0 min 0 min 0,0 UV-I 0 W/m 0,0 km/h (0 Bft)
20.11.2013 07:52 0,3 C -1,1 C 95 % 1008,8 hPa 0,0 l/m 0 min 0 min 0,0 UV-I 0 W/m 0,0 km/h (0 Bft)
20.11.2013 07:54 0,3 C -1,1 C 95 % 1008,8 hPa 0,0 l/m 0 min 0 min 0,0 UV-I 0 W/m 0,0 km/h (0 Bft)
20.11.2013 07:56 0,2 C -1,1 C 95 % 1008,8 hPa 0,0 l/m 0 min 0 min 0,0 UV-I 0 W/m 0,0 km/h (0 Bft)
20.11.2013 07:58 0,2 C -1,1 C 95 % 1008,8 hPa 0,0 l/m 0 min 0 min 0,0 UV-I 0 W/m 0,0 km/h (0 Bft)
20.11.2013 08:00 0,2 C -1,1 C 95 % 1008,7 hPa 0,0 l/m 0 min 0 min 0,0 UV-I 0 W/m 0,0 km/h (0 Bft)
20.11.2013 08:02 0,2 C -1,1 C 95 % 1008,7 hPa 0,0 l/m 0 min 0 min 0,0 UV-I 0 W/m 0,0 km/h (0 Bft)
20.11.2013 08:04 0,2 C -1,1 C 95 % 1008,7 hPa 0,0 l/m 0 min 0 min 0,0 UV-I 5 W/m 0,0 km/h (0 Bft)
20.11.2013 08:06 0,2 C -0,6 C 95 % 1008,7 hPa 0,0 l/m 0 min 0 min 0,0 UV-I 5 W/m 0,0 km/h (0 Bft)
20.11.2013 08:08 0,2 C -0,6 C 95 % 1008,7 hPa 0,0 l/m 0 min 0 min 0,0 UV-I 5 W/m 0,0 km/h (0 Bft)
20.11.2013 08:10 0,2 C -0,6 C 95 % 1008,6 hPa 0,0 l/m 0 min 0 min 0,0 UV-I 7 W/m 0,0 km/h (0 Bft)
20.11.2013 08:12 0,2 C -0,6 C 95 % 1008,6 hPa 0,0 l/m 0 min 0 min 0,0 UV-I 9 W/m 0,0 km/h (0 Bft)
20.11.2013 08:14 0,2 C -0,6 C 96 % 1008,5 hPa 0,0 l/m 0 min 0 min 0,0 UV-I 9 W/m 0,0 km/h (0 Bft)
20.11.2013 08:16 0,2 C -0,6 C 96 % 1008,5 hPa 0,0 l/m 0 min 0 min 0,0 UV-I 11 W/m 0,0 km/h (0 Bft)
20.11.2013 08:18 0,2 C -0,6 C 96 % 1008,5 hPa 0,0 l/m 0 min 0 min 0,0 UV-I 12 W/m 0,0 km/h (0 Bft)
20.11.2013 08:20 0,2 C -0,6 C 96 % 1008,6 hPa 0,0 l/m 0 min 0 min 0,0 UV-I 12 W/m 0,0 km/h (0 Bft)
20.11.2013 08:22 0,2 C -0,6 C 96 % 1008,6 hPa 0,0 l/m 0 min 0 min 0,0 UV-I 14 W/m 0,0 km/h (0 Bft)
20.11.2013 08:24 0,2 C -0,6 C 96 % 1008,6 hPa 0,0 l/m 0 min 0 min 0,0 UV-I 16 W/m 0,0 km/h (0 Bft)
20.11.2013 08:26 0,2 C -0,6 C 96 % 1008,6 hPa 0,0 l/m 0 min 0 min 0,0 UV-I 18 W/m 0,0 km/h (0 Bft)
20.11.2013 08:28 0,2 C -0,6 C 96 % 1008,5 hPa 0,0 l/m 0 min 0 min 0,0 UV-I 19 W/m 0,0 km/h (0 Bft)
20.11.2013 08:30 0,2 C -0,6 C 96 % 1008,5 hPa 0,0 l/m 0 min 0 min 0,0 UV-I 21 W/m 0,0 km/h (0 Bft)
20.11.2013 08:32 0,2 C -0,6 C 96 % 1008,5 hPa 0,0 l/m 0 min 0 min 0,0 UV-I 21 W/m 0,0 km/h (0 Bft)
20.11.2013 08:34 0,2 C -0,6 C 96 % 1008,5 hPa 0,0 l/m 0 min 0 min 0,0 UV-I 23 W/m 0,0 km/h (0 Bft)
20.11.2013 08:36 0,3 C 0,0 C 96 % 1008,5 hPa 0,0 l/m 0 min 0 min 0,0 UV-I 23 W/m 0,0 km/h (0 Bft)
20.11.2013 08:38 0,3 C 0,0 C 96 % 1008,5 hPa 0,0 l/m 0 min 0 min 0,0 UV-I 25 W/m 0,0 km/h (0 Bft)
20.11.2013 08:40 0,3 C 0,0 C 96 % 1008,4 hPa 0,0 l/m 0 min 0 min 0,0 UV-I 26 W/m 0,0 km/h (0 Bft)
20.11.2013 08:42 0,3 C 0,0 C 96 % 1008,5 hPa 0,0 l/m 0 min 0 min 0,0 UV-I 26 W/m 0,0 km/h (0 Bft)
20.11.2013 08:44 0,3 C 0,0 C 96 % 1008,4 hPa 0,0 l/m 0 min 0 min 0,0 UV-I 26 W/m 2,6 km/h (1 Bft)
20.11.2013 08:46 0,4 C 0,0 C 96 % 1008,4 hPa 0,0 l/m 0 min 0 min 0,0 UV-I 26 W/m 0,0 km/h (0 Bft)
20.11.2013 08:48 0,4 C 0,0 C 96 % 1008,5 hPa 0,0 l/m 0 min 0 min 0,0 UV-I 28 W/m 2,6 km/h (1 Bft)
20.11.2013 08:50 0,4 C 0,0 C 96 % 1008,4 hPa 0,0 l/m 0 min 0 min 0,0 UV-I 28 W/m 2,6 km/h (1 Bft)
20.11.2013 08:52 0,5 C 0,0 C 96 % 1008,4 hPa 0,0 l/m 0 min 0 min 0,0 UV-I 30 W/m 5,1 km/h (1 Bft)
20.11.2013 08:54 0,5 C 0,0 C 96 % 1008,5 hPa 0,0 l/m 0 min 0 min 0,0 UV-I 30 W/m 0,0 km/h (0 Bft)
20.11.2013 08:56 0,5 C 0,0 C 96 % 1008,4 hPa 0,0 l/m 0 min 0 min 0,0 UV-I 32 W/m 0,0 km/h (0 Bft)
20.11.2013 08:58 0,5 C 0,0 C 96 % 1008,4 hPa 0,0 l/m 0 min 0 min 0,0 UV-I 32 W/m 0,0 km/h (0 Bft)
20.11.2013 09:00 0,5 C 0,0 C 96 % 1008,5 hPa 0,0 l/m 0 min 0 min 0,0 UV-I 32 W/m 0,0 km/h (0 Bft)
20.11.2013 09:02 0,5 C 0,0 C 96 % 1008,4 hPa 0,0 l/m 0 min 0 min 0,0 UV-I 32 W/m 0,0 km/h (0 Bft)
20.11.2013 09:04 0,5 C 0,0 C 96 % 1008,3 hPa 0,0 l/m 0 min 0 min 0,0 UV-I 33 W/m 0,0 km/h (0 Bft)
20.11.2013 09:06 0,5 C 0,0 C 96 % 1008,3 hPa 0,0 l/m 0 min 0 min 0,0 UV-I 33 W/m 0,0 km/h (0 Bft)
20.11.2013 09:08 0,5 C 0,0 C 96 % 1008,3 hPa 0,0 l/m 0 min 0 min 0,0 UV-I 33 W/m 0,0 km/h (0 Bft)
20.11.2013 09:10 0,5 C 0,0 C 96 % 1008,2 hPa 0,0 l/m 0 min 0 min 0,0 UV-I 35 W/m 0,0 km/h (0 Bft)
20.11.2013 09:12 0,6 C 0,0 C 96 % 1008,2 hPa 0,0 l/m 0 min 0 min 0,0 UV-I 35 W/m 0,0 km/h (0 Bft)
20.11.2013 09:14 0,6 C 0,0 C 96 % 1008,3 hPa 0,0 l/m 0 min 0 min 0,0 UV-I 37 W/m 0,0 km/h (0 Bft)
20.11.2013 09:16 0,6 C 0,0 C 96 % 1008,3 hPa 0,0 l/m 0 min 0 min 0,0 UV-I 39 W/m 0,0 km/h (0 Bft)
20.11.2013 09:18 0,6 C 0,0 C 96 % 1008,2 hPa 0,0 l/m 0 min 0 min 0,0 UV-I 37 W/m 0,0 km/h (0 Bft)
20.11.2013 09:20 0,7 C 0,0 C 96 % 1008,2 hPa 0,0 l/m 0 min 0 min 0,0 UV-I 49 W/m 0,0 km/h (0 Bft)
20.11.2013 09:22 0,7 C 0,0 C 96 % 1008,1 hPa 0,0 l/m 0 min 0 min 0,0 UV-I 77 W/m 0,0 km/h (0 Bft)
20.11.2013 09:24 0,7 C 0,0 C 96 % 1008,1 hPa 0,0 l/m 0 min 0 min 0,0 UV-I 83 W/m 2,6 km/h (1 Bft)
20.11.2013 09:26 0,7 C 0,0 C 96 % 1008,1 hPa 0,0 l/m 0 min 0 min 0,0 UV-I 90 W/m 7,7 km/h (2 Bft)
20.11.2013 09:28 0,8 C 0,0 C 96 % 1008,0 hPa 0,0 l/m 0 min 0 min 0,0 UV-I 83 W/m 7,7 km/h (2 Bft)
20.11.2013 09:30 0,8 C 0,0 C 96 % 1008,0 hPa 0,0 l/m 0 min 0 min 0,0 UV-I 77 W/m 2,6 km/h (1 Bft)
20.11.2013 09:32 0,8 C 0,6 C 96 % 1007,9 hPa 0,0 l/m 0 min 0 min 0,0 UV-I 74 W/m 0,0 km/h (0 Bft)
20.11.2013 09:34 0,9 C 0,6 C 96 % 1007,8 hPa 0,0 l/m 0 min 0 min 0,0 UV-I 67 W/m 0,0 km/h (0 Bft)
20.11.2013 09:36 0,9 C 0,6 C 96 % 1007,8 hPa 0,0 l/m 0 min 0 min 0,0 UV-I 60 W/m 0,0 km/h (0 Bft)
20.11.2013 09:38 0,9 C 0,6 C 96 % 1007,8 hPa 0,0 l/m 0 min 0 min 0,0 UV-I 74 W/m 0,0 km/h (0 Bft)
20.11.2013 09:40 0,9 C 0,6 C 96 % 1007,8 hPa 0,0 l/m 0 min 0 min 0,0 UV-I 91 W/m 5,1 km/h (1 Bft)
20.11.2013 09:42 0,9 C 0,6 C 96 % 1007,7 hPa 0,0 l/m 2 min 0 min 0,0 UV-I 109 W/m 0,0 km/h (0 Bft)
20.11.2013 09:44 0,9 C 0,6 C 96 % 1007,7 hPa 0,0 l/m 2 min 0 min 0,0 UV-I 116 W/m 0,0 km/h (0 Bft)
20.11.2013 09:46 1,0 C 0,6 C 96 % 1007,7 hPa 0,0 l/m 2 min 0 min 0,0 UV-I 123 W/m 0,0 km/h (0 Bft)
20.11.2013 09:48 1,0 C 0,6 C 96 % 1007,7 hPa 0,0 l/m 2 min 0 min 0,0 UV-I 121 W/m 0,0 km/h (0 Bft)
20.11.2013 09:50 1,0 C 0,6 C 97 % 1007,8 hPa 0,0 l/m 2 min 0 min 0,0 UV-I 123 W/m 2,6 km/h (1 Bft)
20.11.2013 09:52 1,1 C 0,6 C 97 % 1007,7 hPa 0,0 l/m 0 min 0 min 0,0 UV-I 114 W/m 0,0 km/h (0 Bft)
20.11.2013 09:54 1,1 C 0,6 C 97 % 1007,7 hPa 0,0 l/m 2 min 0 min 0,0 UV-I 139 W/m 0,0 km/h (0 Bft)
20.11.2013 09:56 1,1 C 0,6 C 97 % 1007,6 hPa 0,0 l/m 2 min 0 min 0,0 UV-I 141 W/m 0,0 km/h (0 Bft)
20.11.2013 09:58 1,2 C 0,6 C 97 % 1007,6 hPa 0,0 l/m 2 min 0 min 0,0 UV-I 137 W/m 0,0 km/h (0 Bft)
20.11.2013 10:00 1,2 C 0,6 C 97 % 1007,6 hPa 0,0 l/m 2 min 0 min 0,0 UV-I 148 W/m 0,0 km/h (0 Bft)
20.11.2013 10:02 1,3 C 0,6 C 97 % 1007,6 hPa 0,0 l/m 2 min 0 min 0,0 UV-I 158 W/m 2,6 km/h (1 Bft)
20.11.2013 10:04 1,3 C 1,1 C 97 % 1007,6 hPa 0,0 l/m 2 min 0 min 0,0 UV-I 163 W/m 0,0 km/h (0 Bft)
20.11.2013 10:06 1,4 C 1,1 C 97 % 1007,6 hPa 0,0 l/m 2 min 0 min 0,0 UV-I 167 W/m 2,6 km/h (1 Bft)
20.11.2013 10:08 1,4 C 1,1 C 97 % 1007,6 hPa 0,0 l/m 2 min 0 min 0,0 UV-I 171 W/m 0,0 km/h (0 Bft)
20.11.2013 10:10 1,5 C 1,1 C 97 % 1007,5 hPa 0,0 l/m 2 min 0 min 0,0 UV-I 172 W/m 0,0 km/h (0 Bft)
20.11.2013 10:12 1,6 C 1,1 C 97 % 1007,4 hPa 0,2 l/m 2 min 0 min 0,0 UV-I 179 W/m 0,0 km/h (0 Bft)
20.11.2013 10:14 1,7 C 1,1 C 97 % 1007,5 hPa 0,0 l/m 2 min 0 min 0,0 UV-I 185 W/m 0,0 km/h (0 Bft)
20.11.2013 10:16 1,7 C 1,1 C 97 % 1007,3 hPa 0,0 l/m 2 min 0 min 0,0 UV-I 186 W/m 0,0 km/h (0 Bft)
20.11.2013 10:18 1,8 C 1,1 C 97 % 1007,3 hPa 0,0 l/m 2 min 0 min 0,0 UV-I 192 W/m 2,6 km/h (1 Bft)
20.11.2013 10:20 1,8 C 1,1 C 97 % 1007,3 hPa 0,0 l/m 2 min 0 min 0,0 UV-I 197 W/m 0,0 km/h (0 Bft)
20.11.2013 10:22 1,9 C 1,1 C 97 % 1007,3 hPa 0,0 l/m 2 min 0 min 0,0 UV-I 199 W/m 0,0 km/h (0 Bft)
20.11.2013 10:24 2,0 C 1,1 C 97 % 1007,3 hPa 0,0 l/m 2 min 0 min 0,0 UV-I 195 W/m 2,6 km/h (1 Bft)
20.11.2013 10:26 2,1 C 1,7 C 97 % 1007,3 hPa 0,0 l/m 2 min 0 min 0,0 UV-I 185 W/m 0,0 km/h (0 Bft)
20.11.2013 10:28 2,2 C 1,7 C 97 % 1007,1 hPa 0,0 l/m 2 min 0 min 0,0 UV-I 186 W/m 2,6 km/h (1 Bft)
20.11.2013 10:30 2,2 C 1,7 C 97 % 1007,0 hPa 0,0 l/m 2 min 0 min 0,0 UV-I 202 W/m 0,0 km/h (0 Bft)
20.11.2013 10:32 2,3 C 1,7 C 97 % 1007,1 hPa 0,0 l/m 2 min 0 min 0,0 UV-I 206 W/m 0,0 km/h (0 Bft)
20.11.2013 10:34 2,4 C 1,7 C 97 % 1007,2 hPa 0,0 l/m 2 min 0 min 0,0 UV-I 209 W/m 2,6 km/h (1 Bft)
20.11.2013 10:36 2,6 C 1,7 C 97 % 1007,1 hPa 0,0 l/m 2 min 0 min 0,0 UV-I 211 W/m 10,3 km/h (2 Bft)
20.11.2013 10:38 2,6 C 1,7 C 97 % 1007,1 hPa 0,0 l/m 2 min 0 min 0,0 UV-I 214 W/m 0,0 km/h (0 Bft)
20.11.2013 10:40 2,7 C 2,2 C 97 % 1007,1 hPa 0,0 l/m 2 min 0 min 0,0 UV-I 218 W/m 0,0 km/h (0 Bft)
20.11.2013 10:42 2,8 C 2,2 C 97 % 1007,0 hPa 0,0 l/m 2 min 0 min 0,0 UV-I 220 W/m 2,6 km/h (1 Bft)
20.11.2013 10:44 2,9 C 2,2 C 97 % 1007,0 hPa 0,0 l/m 2 min 0 min 0,0 UV-I 221 W/m 0,0 km/h (0 Bft)
20.11.2013 10:46 2,9 C 2,2 C 97 % 1007,0 hPa 0,0 l/m 2 min 0 min 0,0 UV-I 218 W/m 0,0 km/h (0 Bft)
20.11.2013 10:48 3,1 C 2,2 C 97 % 1006,9 hPa 0,0 l/m 2 min 0 min 0,0 UV-I 227 W/m 0,0 km/h (0 Bft)
20.11.2013 10:50 3,2 C 2,2 C 97 % 1006,9 hPa 0,0 l/m 2 min 0 min 0,0 UV-I 213 W/m 2,6 km/h (1 Bft)
20.11.2013 10:52 3,3 C 2,2 C 98 % 1006,8 hPa 0,0 l/m 2 min 0 min 0,0 UV-I 211 W/m 0,0 km/h (0 Bft)
20.11.2013 10:54 3,4 C 2,2 C 97 % 1006,8 hPa 0,0 l/m 2 min 0 min 0,0 UV-I 211 W/m 0,0 km/h (0 Bft)
20.11.2013 10:56 3,4 C 2,2 C 97 % 1006,8 hPa 0,0 l/m 2 min 0 min 0,0 UV-I 211 W/m 0,0 km/h (0 Bft)
20.11.2013 10:58 3,5 C 2,2 C 97 % 1006,8 hPa 0,0 l/m 2 min 0 min 0,0 UV-I 213 W/m 0,0 km/h (0 Bft)
20.11.2013 11:00 3,7 C 2,8 C 97 % 1006,8 hPa 0,0 l/m 2 min 0 min 0,0 UV-I 206 W/m 0,0 km/h (0 Bft)
20.11.2013 11:02 3,8 C 2,8 C 97 % 1006,7 hPa 0,0 l/m 2 min 0 min 0,0 UV-I 213 W/m 0,0 km/h (0 Bft)
20.11.2013 11:04 3,9 C 2,8 C 97 % 1006,7 hPa 0,0 l/m 2 min 0 min 0,0 UV-I 214 W/m 2,6 km/h (1 Bft)
20.11.2013 11:06 4,0 C 2,8 C 97 % 1006,6 hPa 0,0 l/m 2 min 0 min 0,0 UV-I 234 W/m 0,0 km/h (0 Bft)
20.11.2013 11:08 4,2 C 2,8 C 97 % 1006,6 hPa 0,0 l/m 2 min 0 min 0,0 UV-I 239 W/m 2,6 km/h (1 Bft)
20.11.2013 11:10 4,2 C 2,8 C 97 % 1006,5 hPa 0,0 l/m 2 min 0 min 0,0 UV-I 236 W/m 0,0 km/h (0 Bft)
20.11.2013 11:12 4,3 C 2,8 C 97 % 1006,5 hPa 0,0 l/m 2 min 0 min 0,0 UV-I 239 W/m 5,1 km/h (1 Bft)
20.11.2013 11:14 4,3 C 2,8 C 96 % 1006,5 hPa 0,0 l/m 2 min 0 min 0,0 UV-I 232 W/m 0,0 km/h (0 Bft)
20.11.2013 11:16 4,4 C 3,3 C 96 % 1006,4 hPa 0,0 l/m 2 min 0 min 0,0 UV-I 243 W/m 0,0 km/h (0 Bft)
20.11.2013 11:18 4,6 C 3,3 C 95 % 1006,4 hPa 0,0 l/m 2 min 0 min 0,0 UV-I 234 W/m 5,1 km/h (1 Bft)
20.11.2013 11:20 4,6 C 3,3 C 95 % 1006,4 hPa 0,0 l/m 2 min 0 min 0,0 UV-I 237 W/m 2,6 km/h (1 Bft)
20.11.2013 11:22 4,6 C 3,3 C 94 % 1006,3 hPa 0,0 l/m 2 min 0 min 0,0 UV-I 229 W/m 0,0 km/h (0 Bft)
20.11.2013 11:24 4,7 C 3,3 C 94 % 1006,3 hPa 0,0 l/m 2 min 0 min 0,0 UV-I 232 W/m 2,6 km/h (1 Bft)
20.11.2013 11:26 4,8 C 3,3 C 93 % 1006,3 hPa 0,0 l/m 2 min 0 min 0,0 UV-I 255 W/m 7,7 km/h (2 Bft)
20.11.2013 11:28 4,8 C 3,3 C 93 % 1006,2 hPa 0,0 l/m 2 min 0 min 0,0 UV-I 262 W/m 7,7 km/h (2 Bft)
20.11.2013 11:30 4,8 C 3,3 C 92 % 1006,1 hPa 0,0 l/m 2 min 0 min 0,0 UV-I 253 W/m 2,6 km/h (1 Bft)
20.11.2013 11:32 4,9 C 3,9 C 92 % 1006,1 hPa 0,0 l/m 2 min 0 min 0,0 UV-I 258 W/m 0,0 km/h (0 Bft)
20.11.2013 11:34 5,0 C 3,9 C 92 % 1006,1 hPa 0,0 l/m 2 min 0 min 0,0 UV-I 299 W/m 2,6 km/h (1 Bft)
20.11.2013 11:36 5,2 C 3,9 C 92 % 1006,1 hPa 0,0 l/m 2 min 0 min 0,0 UV-I 301 W/m 2,6 km/h (1 Bft)
20.11.2013 11:38 5,3 C 3,9 C 91 % 1006,0 hPa 0,0 l/m 2 min 0 min 0,0 UV-I 290 W/m 10,3 km/h (2 Bft)
20.11.2013 11:40 5,3 C 3,9 C 91 % 1005,9 hPa 0,0 l/m 2 min 0 min 0,0 UV-I 287 W/m 12,9 km/h (3 Bft)
20.11.2013 11:42 5,3 C 3,9 C 90 % 1005,9 hPa 0,0 l/m 2 min 0 min 0,0 UV-I 294 W/m 10,3 km/h (2 Bft)
20.11.2013 11:44 5,3 C 4,4 C 90 % 1005,9 hPa 0,0 l/m 2 min 0 min 0,0 UV-I 285 W/m 0,0 km/h (0 Bft)
20.11.2013 11:46 5,4 C 4,4 C 90 % 1005,9 hPa 0,0 l/m 2 min 0 min 0,0 UV-I 301 W/m 2,6 km/h (1 Bft)
20.11.2013 11:48 5,3 C 4,4 C 90 % 1005,8 hPa 0,0 l/m 2 min 0 min 0,0 UV-I 272 W/m 7,7 km/h (2 Bft)
20.11.2013 11:50 5,4 C 4,4 C 90 % 1005,8 hPa 0,0 l/m 2 min 0 min 0,0 UV-I 237 W/m 0,0 km/h (0 Bft)
20.11.2013 11:52 5,4 C 4,4 C 90 % 1005,7 hPa 0,0 l/m 2 min 0 min 0,0 UV-I 262 W/m 0,0 km/h (0 Bft)
20.11.2013 11:54 5,5 C 4,4 C 90 % 1005,7 hPa 0,0 l/m 2 min 0 min 0,0 UV-I 251 W/m 12,9 km/h (3 Bft)
20.11.2013 11:56 5,4 C 4,4 C 90 % 1005,7 hPa 0,0 l/m 2 min 0 min 0,0 UV-I 250 W/m 12,9 km/h (3 Bft)
20.11.2013 11:58 5,5 C 4,4 C 89 % 1005,6 hPa 0,0 l/m 2 min 0 min 0,0 UV-I 279 W/m 10,3 km/h (2 Bft)
20.11.2013 12:00 5,4 C 4,4 C 89 % 1005,6 hPa 0,0 l/m 2 min 0 min 0,0 UV-I 285 W/m 12,9 km/h (3 Bft)
20.11.2013 12:02 5,4 C 4,4 C 89 % 1005,6 hPa 0,0 l/m 2 min 0 min 0,0 UV-I 302 W/m 12,9 km/h (3 Bft)
20.11.2013 12:04 5,5 C 4,4 C 89 % 1005,6 hPa 0,0 l/m 2 min 0 min 0,0 UV-I 276 W/m 5,1 km/h (1 Bft)
20.11.2013 12:06 5,5 C 4,4 C 89 % 1005,6 hPa 0,0 l/m 0 min 0 min 0,0 UV-I 146 W/m 10,3 km/h (2 Bft)
20.11.2013 12:08 5,5 C 4,4 C 89 % 1005,6 hPa 0,0 l/m 0 min 0 min 0,0 UV-I 158 W/m 2,6 km/h (1 Bft)
20.11.2013 12:10 5,3 C 4,4 C 89 % 1005,6 hPa 0,0 l/m 0 min 0 min 0,0 UV-I 174 W/m 10,3 km/h (2 Bft)
20.11.2013 12:12 5,3 C 4,4 C 89 % 1005,5 hPa 0,0 l/m 0 min 0 min 0,0 UV-I 165 W/m 0,0 km/h (0 Bft)
20.11.2013 12:14 5,2 C 4,4 C 89 % 1005,4 hPa 0,0 l/m 0 min 0 min 0,0 UV-I 169 W/m 5,1 km/h (1 Bft)
20.11.2013 12:16 5,3 C 4,4 C 90 % 1005,4 hPa 0,0 l/m 2 min 0 min 0,0 UV-I 202 W/m 0,0 km/h (0 Bft)
20.11.2013 12:18 5,3 C 4,4 C 90 % 1005,4 hPa 0,0 l/m 0 min 0 min 0,0 UV-I 176 W/m 5,1 km/h (1 Bft)
20.11.2013 12:20 5,3 C 4,4 C 90 % 1005,4 hPa 0,0 l/m 0 min 0 min 0,0 UV-I 167 W/m 0,0 km/h (0 Bft)
20.11.2013 12:22 5,3 C 4,4 C 90 % 1005,4 hPa 0,0 l/m 2 min 0 min 0,0 UV-I 183 W/m 5,1 km/h (1 Bft)
20.11.2013 12:24 5,3 C 4,4 C 90 % 1005,4 hPa 0,0 l/m 2 min 0 min 0,0 UV-I 216 W/m 5,1 km/h (1 Bft)
20.11.2013 12:26 5,2 C 4,4 C 89 % 1005,3 hPa 0,0 l/m 2 min 0 min 0,0 UV-I 272 W/m 2,6 km/h (1 Bft)
20.11.2013 12:28 5,2 C 4,4 C 89 % 1005,2 hPa 0,0 l/m 2 min 0 min 0,0 UV-I 234 W/m 0,0 km/h (0 Bft)
20.11.2013 12:30 5,3 C 4,4 C 89 % 1005,2 hPa 0,0 l/m 0 min 0 min 0,0 UV-I 153 W/m 5,1 km/h (1 Bft)
20.11.2013 12:32 5,3 C 4,4 C 89 % 1005,1 hPa 0,0 l/m 2 min 0 min 0,0 UV-I 216 W/m 10,3 km/h (2 Bft)
20.11.2013 12:34 5,3 C 4,4 C 89 % 1005,0 hPa 0,0 l/m 2 min 0 min 0,0 UV-I 250 W/m 10,3 km/h (2 Bft)
20.11.2013 12:36 5,4 C 4,4 C 89 % 1005,0 hPa 0,0 l/m 2 min 0 min 0,0 UV-I 229 W/m 2,6 km/h (1 Bft)
20.11.2013 12:38 5,4 C 4,4 C 89 % 1004,9 hPa 0,0 l/m 2 min 0 min 0,0 UV-I 230 W/m 2,6 km/h (1 Bft)
20.11.2013 12:40 5,4 C 4,4 C 89 % 1005,0 hPa 0,0 l/m 2 min 0 min 0,0 UV-I 250 W/m 12,9 km/h (3 Bft)
20.11.2013 12:42 5,4 C 4,4 C 89 % 1004,8 hPa 0,0 l/m 2 min 0 min 0,0 UV-I 230 W/m 10,3 km/h (2 Bft)
20.11.2013 12:44 5,4 C 4,4 C 89 % 1004,8 hPa 0,0 l/m 2 min 0 min 0,0 UV-I 181 W/m 10,3 km/h (2 Bft)
20.11.2013 12:46 5,4 C 4,4 C 89 % 1004,7 hPa 0,0 l/m 0 min 0 min 0,0 UV-I 179 W/m 7,7 km/h (2 Bft)
20.11.2013 12:48 5,4 C 4,4 C 89 % 1004,6 hPa 0,0 l/m 0 min 0 min 0,0 UV-I 174 W/m 5,1 km/h (1 Bft)
20.11.2013 12:50 5,3 C 4,4 C 89 % 1004,6 hPa 0,0 l/m 0 min 0 min 0,0 UV-I 174 W/m 7,7 km/h (2 Bft)
20.11.2013 12:52 5,3 C 4,4 C 89 % 1004,5 hPa 0,0 l/m 2 min 0 min 0,0 UV-I 179 W/m 2,6 km/h (1 Bft)
20.11.2013 12:54 5,3 C 4,4 C 89 % 1004,5 hPa 0,0 l/m 2 min 0 min 0,0 UV-I 188 W/m 10,3 km/h (2 Bft)
20.11.2013 12:56 5,4 C 4,4 C 89 % 1004,4 hPa 0,0 l/m 2 min 0 min 0,0 UV-I 181 W/m 7,7 km/h (2 Bft)
20.11.2013 12:58 5,4 C 4,4 C 89 % 1004,5 hPa 0,0 l/m 2 min 0 min 0,0 UV-I 186 W/m 2,6 km/h (1 Bft)
20.11.2013 13:00 5,4 C 4,4 C 89 % 1004,5 hPa 0,0 l/m 0 min 0 min 0,0 UV-I 148 W/m 2,6 km/h (1 Bft)
20.11.2013 13:02 5,4 C 4,4 C 89 % 1004,4 hPa 0,0 l/m 2 min 0 min 0,0 UV-I 188 W/m 5,1 km/h (1 Bft)
20.11.2013 13:04 5,4 C 4,4 C 89 % 1004,4 hPa 0,0 l/m 2 min 0 min 0,0 UV-I 202 W/m 5,1 km/h (1 Bft)
20.11.2013 13:06 5,3 C 4,4 C 89 % 1004,4 hPa 0,0 l/m 2 min 0 min 0,0 UV-I 190 W/m 12,9 km/h (3 Bft)
20.11.2013 13:08 5,4 C 4,4 C 89 % 1004,3 hPa 0,0 l/m 0 min 0 min 0,0 UV-I 174 W/m 5,1 km/h (1 Bft)
20.11.2013 13:10 5,4 C 4,4 C 89 % 1004,2 hPa 0,0 l/m 0 min 0 min 0,0 UV-I 151 W/m 0,0 km/h (0 Bft)
20.11.2013 13:12 5,5 C 5,0 C 89 % 1004,3 hPa 0,0 l/m 0 min 0 min 0,0 UV-I 160 W/m 5,1 km/h (1 Bft)
20.11.2013 13:14 5,4 C 4,4 C 89 % 1004,2 hPa 0,0 l/m 2 min 0 min 0,0 UV-I 190 W/m 15,4 km/h (3 Bft)
20.11.2013 13:16 5,4 C 4,4 C 89 % 1004,2 hPa 0,0 l/m 0 min 0 min 0,0 UV-I 141 W/m 10,3 km/h (2 Bft)
20.11.2013 13:18 5,3 C 4,4 C 89 % 1004,1 hPa 0,0 l/m 0 min 0 min 0,0 UV-I 151 W/m 15,4 km/h (3 Bft)
20.11.2013 13:20 5,3 C 4,4 C 89 % 1004,1 hPa 0,0 l/m 0 min 0 min 0,0 UV-I 158 W/m 5,1 km/h (1 Bft)
20.11.2013 13:22 5,3 C 4,4 C 89 % 1004,1 hPa 0,0 l/m 0 min 0 min 0,0 UV-I 153 W/m 7,7 km/h (2 Bft)
20.11.2013 13:24 5,2 C 4,4 C 89 % 1004,0 hPa 0,0 l/m 0 min 0 min 0,0 UV-I 144 W/m 10,3 km/h (2 Bft)
20.11.2013 13:26 5,2 C 4,4 C 89 % 1004,0 hPa 0,0 l/m 0 min 0 min 0,0 UV-I 146 W/m 7,7 km/h (2 Bft)
20.11.2013 13:28 5,3 C 4,4 C 89 % 1003,9 hPa 0,0 l/m 0 min 0 min 0,0 UV-I 155 W/m 2,6 km/h (1 Bft)
20.11.2013 13:30 5,3 C 4,4 C 89 % 1003,9 hPa 0,0 l/m 0 min 0 min 0,0 UV-I 158 W/m 12,9 km/h (3 Bft)
20.11.2013 13:32 5,3 C 4,4 C 89 % 1003,9 hPa 0,0 l/m 0 min 0 min 0,0 UV-I 153 W/m 7,7 km/h (2 Bft)
20.11.2013 13:34 5,3 C 4,4 C 89 % 1003,8 hPa 0,0 l/m 0 min 0 min 0,0 UV-I 151 W/m 5,1 km/h (1 Bft)
20.11.2013 13:36 5,3 C 4,4 C 89 % 1003,7 hPa 0,0 l/m 0 min 0 min 0,0 UV-I 155 W/m 5,1 km/h (1 Bft)
20.11.2013 13:38 5,4 C 4,4 C 89 % 1003,7 hPa 0,0 l/m 0 min 0 min 0,0 UV-I 148 W/m 5,1 km/h (1 Bft)
20.11.2013 13:40 5,4 C 4,4 C 89 % 1003,7 hPa 0,0 l/m 0 min 0 min 0,0 UV-I 151 W/m 15,4 km/h (3 Bft)
20.11.2013 13:42 5,3 C 4,4 C 89 % 1003,6 hPa 0,0 l/m 0 min 0 min 0,0 UV-I 153 W/m 15,4 km/h (3 Bft)
20.11.2013 13:44 5,3 C 4,4 C 89 % 1003,6 hPa 0,0 l/m 0 min 0 min 0,0 UV-I 155 W/m 2,6 km/h (1 Bft)
20.11.2013 13:46 5,3 C 4,4 C 89 % 1003,6 hPa 0,0 l/m 0 min 0 min 0,0 UV-I 149 W/m 10,3 km/h (2 Bft)
20.11.2013 13:48 5,4 C 4,4 C 89 % 1003,6 hPa 0,0 l/m 0 min 0 min 0,0 UV-I 155 W/m 7,7 km/h (2 Bft)
20.11.2013 13:50 5,4 C 4,4 C 89 % 1003,6 hPa 0,0 l/m 0 min 0 min 0,0 UV-I 144 W/m 7,7 km/h (2 Bft)
20.11.2013 13:52 5,4 C 4,4 C 89 % 1003,6 hPa 0,0 l/m 0 min 0 min 0,0 UV-I 149 W/m 0,0 km/h (0 Bft)
20.11.2013 13:54 5,4 C 4,4 C 88 % 1003,5 hPa 0,0 l/m 0 min 0 min 0,0 UV-I 141 W/m 2,6 km/h (1 Bft)
20.11.2013 13:56 5,4 C 4,4 C 88 % 1003,5 hPa 0,0 l/m 2 min 0 min 0,0 UV-I 176 W/m 12,9 km/h (3 Bft)
20.11.2013 13:58 5,4 C 4,4 C 88 % 1003,4 hPa 0,0 l/m 2 min 0 min 0,0 UV-I 179 W/m 12,9 km/h (3 Bft)
20.11.2013 14:00 5,4 C 4,4 C 88 % 1003,4 hPa 0,0 l/m 2 min 0 min 0,0 UV-I 192 W/m 15,4 km/h (3 Bft)
20.11.2013 14:02 5,5 C 4,4 C 88 % 1003,4 hPa 0,0 l/m 2 min 0 min 0,0 UV-I 163 W/m 12,9 km/h (3 Bft)
20.11.2013 14:04 5,5 C 4,4 C 87 % 1003,1 hPa 0,0 l/m 2 min 0 min 0,0 UV-I 156 W/m 2,6 km/h (1 Bft)
20.11.2013 14:06 5,6 C 4,4 C 87 % 1003,1 hPa 0,0 l/m 0 min 0 min 0,0 UV-I 146 W/m 12,9 km/h (3 Bft)
20.11.2013 14:08 5,5 C 4,4 C 87 % 1003,1 hPa 0,0 l/m 0 min 0 min 0,0 UV-I 134 W/m 15,4 km/h (3 Bft)
20.11.2013 14:10 5,4 C 4,4 C 87 % 1003,1 hPa 0,0 l/m 0 min 0 min 0,0 UV-I 134 W/m 10,3 km/h (2 Bft)
20.11.2013 14:12 5,4 C 4,4 C 86 % 1002,9 hPa 0,0 l/m 2 min 0 min 0,0 UV-I 146 W/m 12,9 km/h (3 Bft)
20.11.2013 14:14 5,4 C 4,4 C 87 % 1002,9 hPa 0,0 l/m 2 min 0 min 0,0 UV-I 149 W/m 18,0 km/h (3 Bft)
20.11.2013 14:16 5,4 C 4,4 C 87 % 1003,0 hPa 0,0 l/m 2 min 0 min 0,0 UV-I 156 W/m 12,9 km/h (3 Bft)
20.11.2013 14:18 5,4 C 4,4 C 87 % 1002,9 hPa 0,0 l/m 2 min 0 min 0,0 UV-I 149 W/m 5,1 km/h (1 Bft)
20.11.2013 14:20 5,4 C 4,4 C 87 % 1002,9 hPa 0,0 l/m 0 min 0 min 0,0 UV-I 132 W/m 5,1 km/h (1 Bft)
20.11.2013 14:22 5,4 C 4,4 C 87 % 1002,9 hPa 0,0 l/m 0 min 0 min 0,0 UV-I 123 W/m 10,3 km/h (2 Bft)
20.11.2013 14:24 5,4 C 4,4 C 86 % 1002,9 hPa 0,0 l/m 2 min 0 min 0,0 UV-I 186 W/m 15,4 km/h (3 Bft)
20.11.2013 14:26 5,5 C 4,4 C 86 % 1002,8 hPa 0,0 l/m 2 min 0 min 0,0 UV-I 206 W/m 5,1 km/h (1 Bft)
20.11.2013 14:28 5,6 C 4,4 C 86 % 1002,8 hPa 0,0 l/m 2 min 0 min 0,0 UV-I 193 W/m 5,1 km/h (1 Bft)
20.11.2013 14:30 5,7 C 4,4 C 86 % 1002,8 hPa 0,0 l/m 2 min 0 min 0,0 UV-I 199 W/m 12,9 km/h (3 Bft)
20.11.2013 14:32 5,7 C 4,4 C 86 % 1002,8 hPa 0,0 l/m 2 min 0 min 0,0 UV-I 162 W/m 18,0 km/h (3 Bft)
20.11.2013 14:34 5,7 C 4,4 C 86 % 1002,6 hPa 0,0 l/m 2 min 0 min 0,0 UV-I 142 W/m 23,2 km/h (4 Bft)
20.11.2013 14:36 5,7 C 4,4 C 86 % 1002,7 hPa 0,0 l/m 2 min 0 min 0,0 UV-I 155 W/m 10,3 km/h (2 Bft)
20.11.2013 14:38 5,6 C 4,4 C 86 % 1002,6 hPa 0,0 l/m 2 min 0 min 0,0 UV-I 127 W/m 7,7 km/h (2 Bft)
20.11.2013 14:40 5,6 C 4,4 C 85 % 1002,5 hPa 0,0 l/m 2 min 0 min 0,0 UV-I 141 W/m 2,6 km/h (1 Bft)
20.11.2013 14:42 5,6 C 4,4 C 85 % 1002,5 hPa 0,0 l/m 2 min 0 min 0,0 UV-I 123 W/m 5,1 km/h (1 Bft)
20.11.2013 14:44 5,6 C 4,4 C 85 % 1002,4 hPa 0,0 l/m 0 min 0 min 0,0 UV-I 118 W/m 7,7 km/h (2 Bft)
20.11.2013 14:46 5,6 C 4,4 C 85 % 1002,3 hPa 0,0 l/m 2 min 0 min 0,0 UV-I 128 W/m 12,9 km/h (3 Bft)
20.11.2013 14:48 5,5 C 4,4 C 85 % 1002,3 hPa 0,0 l/m 0 min 0 min 0,0 UV-I 114 W/m 15,4 km/h (3 Bft)
20.11.2013 14:50 5,5 C 4,4 C 85 % 1002,2 hPa 0,0 l/m 0 min 0 min 0,0 UV-I 86 W/m 2,6 km/h (1 Bft)
20.11.2013 14:52 5,4 C 4,4 C 85 % 1002,3 hPa 0,0 l/m 0 min 0 min 0,0 UV-I 83 W/m 5,1 km/h (1 Bft)
20.11.2013 14:54 5,4 C 4,4 C 85 % 1002,2 hPa 0,0 l/m 0 min 0 min 0,0 UV-I 77 W/m 0,0 km/h (0 Bft)
20.11.2013 14:56 5,4 C 4,4 C 85 % 1002,3 hPa 0,0 l/m 0 min 0 min 0,0 UV-I 70 W/m 7,7 km/h (2 Bft)
20.11.2013 14:58 5,3 C 3,9 C 85 % 1002,2 hPa 0,0 l/m 0 min 0 min 0,0 UV-I 69 W/m 10,3 km/h (2 Bft)
20.11.2013 15:00 5,3 C 3,9 C 85 % 1002,2 hPa 0,0 l/m 0 min 0 min 0,0 UV-I 69 W/m 2,6 km/h (1 Bft)
20.11.2013 15:02 5,3 C 3,9 C 85 % 1002,2 hPa 0,0 l/m 0 min 0 min 0,0 UV-I 65 W/m 0,0 km/h (0 Bft)
20.11.2013 15:04 5,2 C 3,9 C 85 % 1002,2 hPa 0,0 l/m 0 min 0 min 0,0 UV-I 62 W/m 5,1 km/h (1 Bft)
20.11.2013 15:06 5,2 C 3,9 C 85 % 1002,2 hPa 0,0 l/m 0 min 0 min 0,0 UV-I 58 W/m 0,0 km/h (0 Bft)
20.11.2013 15:08 5,2 C 3,9 C 85 % 1002,1 hPa 0,0 l/m 0 min 0 min 0,0 UV-I 58 W/m 2,6 km/h (1 Bft)
20.11.2013 15:10 5,1 C 3,9 C 85 % 1002,1 hPa 0,0 l/m 0 min 0 min 0,0 UV-I 56 W/m 7,7 km/h (2 Bft)
20.11.2013 15:12 5,1 C 3,9 C 85 % 1002,0 hPa 0,0 l/m 0 min 0 min 0,0 UV-I 54 W/m 0,0 km/h (0 Bft)
20.11.2013 15:14 5,1 C 3,9 C 86 % 1002,0 hPa 0,0 l/m 0 min 0 min 0,0 UV-I 53 W/m 20,6 km/h (4 Bft)
20.11.2013 15:16 5,1 C 3,9 C 85 % 1002,0 hPa 0,0 l/m 0 min 0 min 0,0 UV-I 53 W/m 10,3 km/h (2 Bft)
20.11.2013 15:18 5,1 C 3,9 C 85 % 1002,0 hPa 0,0 l/m 0 min 0 min 0,0 UV-I 49 W/m 15,4 km/h (3 Bft)
20.11.2013 15:20 5,1 C 3,9 C 85 % 1002,0 hPa 0,0 l/m 0 min 0 min 0,0 UV-I 47 W/m 10,3 km/h (2 Bft)
20.11.2013 15:22 5,1 C 3,9 C 85 % 1001,9 hPa 0,0 l/m 0 min 0 min 0,0 UV-I 46 W/m 12,9 km/h (3 Bft)
20.11.2013 15:24 5,1 C 3,9 C 85 % 1001,8 hPa 0,0 l/m 0 min 0 min 0,0 UV-I 44 W/m 10,3 km/h (2 Bft)
20.11.2013 15:26 5,1 C 3,9 C 85 % 1001,8 hPa 0,0 l/m 0 min 0 min 0,0 UV-I 42 W/m 18,0 km/h (3 Bft)
20.11.2013 15:28 5,1 C 3,9 C 85 % 1001,8 hPa 0,0 l/m 0 min 0 min 0,0 UV-I 39 W/m 18,0 km/h (3 Bft)
20.11.2013 15:30 5,0 C 3,9 C 85 % 1001,8 hPa 0,0 l/m 0 min 0 min 0,0 UV-I 35 W/m 15,4 km/h (3 Bft)
20.11.2013 15:32 5,0 C 3,9 C 85 % 1001,8 hPa 0,0 l/m 0 min 0 min 0,0 UV-I 33 W/m 0,0 km/h (0 Bft)
20.11.2013 15:34 5,0 C 3,9 C 86 % 1001,8 hPa 0,0 l/m 0 min 0 min 0,0 UV-I 32 W/m 10,3 km/h (2 Bft)
20.11.2013 15:36 5,0 C 3,9 C 86 % 1001,8 hPa 0,0 l/m 0 min 0 min 0,0 UV-I 30 W/m 5,1 km/h (1 Bft)
20.11.2013 15:38 5,0 C 3,9 C 86 % 1001,8 hPa 0,0 l/m 0 min 0 min 0,0 UV-I 28 W/m 0,0 km/h (0 Bft)
20.11.2013 15:40 4,9 C 3,9 C 86 % 1001,8 hPa 0,0 l/m 0 min 0 min 0,0 UV-I 28 W/m 7,7 km/h (2 Bft)
20.11.2013 15:42 4,9 C 3,9 C 86 % 1001,8 hPa 0,0 l/m 0 min 0 min 0,0 UV-I 26 W/m 12,9 km/h (3 Bft)
20.11.2013 15:44 5,0 C 3,9 C 86 % 1001,7 hPa 0,0 l/m 0 min 0 min 0,0 UV-I 26 W/m 2,6 km/h (1 Bft)
20.11.2013 15:46 5,0 C 3,9 C 86 % 1001,8 hPa 0,0 l/m 0 min 0 min 0,0 UV-I 25 W/m 15,4 km/h (3 Bft)
20.11.2013 15:48 4,9 C 3,9 C 86 % 1001,7 hPa 0,0 l/m 0 min 0 min 0,0 UV-I 25 W/m 23,2 km/h (4 Bft)
20.11.2013 15:50 4,9 C 3,9 C 85 % 1001,7 hPa 0,0 l/m 0 min 0 min 0,0 UV-I 23 W/m 15,4 km/h (3 Bft)
20.11.2013 15:52 4,9 C 3,9 C 85 % 1001,7 hPa 0,0 l/m 0 min 0 min 0,0 UV-I 23 W/m 10,3 km/h (2 Bft)
20.11.2013 15:54 5,0 C 3,9 C 85 % 1001,8 hPa 0,0 l/m 0 min 0 min 0,0 UV-I 21 W/m 12,9 km/h (3 Bft)
20.11.2013 15:56 4,9 C 3,9 C 85 % 1001,7 hPa 0,0 l/m 0 min 0 min 0,0 UV-I 21 W/m 7,7 km/h (2 Bft)
20.11.2013 15:58 4,9 C 3,9 C 86 % 1001,7 hPa 0,0 l/m 0 min 0 min 0,0 UV-I 19 W/m 5,1 km/h (1 Bft)
20.11.2013 16:00 4,9 C 3,9 C 86 % 1001,7 hPa 0,0 l/m 0 min 0 min 0,0 UV-I 18 W/m 25,7 km/h (4 Bft)
20.11.2013 16:02 4,9 C 3,9 C 85 % 1001,6 hPa 0,0 l/m 0 min 0 min 0,0 UV-I 16 W/m 18,0 km/h (3 Bft)
20.11.2013 16:04 4,9 C 3,9 C 85 % 1001,6 hPa 0,0 l/m 0 min 0 min 0,0 UV-I 14 W/m 18,0 km/h (3 Bft)
20.11.2013 16:06 4,9 C 3,9 C 85 % 1001,6 hPa 0,0 l/m 0 min 0 min 0,0 UV-I 12 W/m 7,7 km/h (2 Bft)
20.11.2013 16:08 4,9 C 3,3 C 85 % 1001,6 hPa 0,0 l/m 0 min 0 min 0,0 UV-I 12 W/m 15,4 km/h (3 Bft)
20.11.2013 16:10 4,9 C 3,3 C 84 % 1001,5 hPa 0,0 l/m 0 min 0 min 0,0 UV-I 12 W/m 18,0 km/h (3 Bft)
20.11.2013 16:12 4,9 C 3,3 C 84 % 1001,5 hPa 0,0 l/m 0 min 0 min 0,0 UV-I 9 W/m 15,4 km/h (3 Bft)
20.11.2013 16:14 4,9 C 3,3 C 85 % 1001,5 hPa 0,0 l/m 0 min 0 min 0,0 UV-I 9 W/m 0,0 km/h (0 Bft)
20.11.2013 16:16 4,9 C 3,3 C 85 % 1001,5 hPa 0,0 l/m 0 min 0 min 0,0 UV-I 9 W/m 12,9 km/h (3 Bft)
20.11.2013 16:18 4,8 C 3,3 C 85 % 1001,4 hPa 0,0 l/m 0 min 0 min 0,0 UV-I 7 W/m 10,3 km/h (2 Bft)
20.11.2013 16:20 4,8 C 3,3 C 85 % 1001,5 hPa 0,0 l/m 0 min 0 min 0,0 UV-I 7 W/m 12,9 km/h (3 Bft)
20.11.2013 16:22 4,8 C 3,3 C 85 % 1001,4 hPa 0,0 l/m 0 min 0 min 0,0 UV-I 7 W/m 5,1 km/h (1 Bft)
20.11.2013 16:24 4,8 C 3,3 C 85 % 1001,4 hPa 0,0 l/m 0 min 0 min 0,0 UV-I 7 W/m 5,1 km/h (1 Bft)
20.11.2013 16:26 4,7 C 3,3 C 85 % 1001,4 hPa 0,0 l/m 0 min 0 min 0,0 UV-I 7 W/m 7,7 km/h (2 Bft)
20.11.2013 16:28 4,7 C 3,3 C 85 % 1001,3 hPa 0,0 l/m 0 min 0 min 0,0 UV-I 5 W/m 12,9 km/h (3 Bft)
20.11.2013 16:30 4,7 C 3,3 C 85 % 1001,3 hPa 0,0 l/m 0 min 0 min 0,0 UV-I 5 W/m 7,7 km/h (2 Bft)
20.11.2013 16:32 4,7 C 3,3 C 86 % 1001,3 hPa 0,0 l/m 0 min 0 min 0,0 UV-I 5 W/m 10,3 km/h (2 Bft)
20.11.2013 16:34 4,7 C 3,3 C 85 % 1001,2 hPa 0,0 l/m 0 min 0 min 0,0 UV-I 0 W/m 0,0 km/h (0 Bft)
20.11.2013 16:36 4,7 C 3,3 C 86 % 1001,2 hPa 0,0 l/m 0 min 0 min 0,0 UV-I 0 W/m 10,3 km/h (2 Bft)
20.11.2013 16:38 4,7 C 3,3 C 86 % 1001,2 hPa 0,0 l/m 0 min 0 min 0,0 UV-I 0 W/m 2,6 km/h (1 Bft)
20.11.2013 16:40 4,7 C 3,3 C 86 % 1001,2 hPa 0,0 l/m 0 min 0 min 0,0 UV-I 0 W/m 12,9 km/h (3 Bft)
20.11.2013 16:42 4,7 C 3,3 C 86 % 1001,1 hPa 0,0 l/m 0 min 0 min 0,0 UV-I 0 W/m 2,6 km/h (1 Bft)
20.11.2013 16:44 4,7 C 3,3 C 86 % 1001,1 hPa 0,0 l/m 0 min 0 min 0,0 UV-I 0 W/m 7,7 km/h (2 Bft)
20.11.2013 16:46 4,7 C 3,3 C 86 % 1001,1 hPa 0,0 l/m 0 min 0 min 0,0 UV-I 0 W/m 5,1 km/h (1 Bft)
20.11.2013 16:48 4,6 C 3,3 C 86 % 1001,0 hPa 0,0 l/m 0 min 0 min 0,0 UV-I 0 W/m 7,7 km/h (2 Bft)
20.11.2013 16:50 4,6 C 3,3 C 86 % 1001,0 hPa 0,0 l/m 0 min 0 min 0,0 UV-I 0 W/m 5,1 km/h (1 Bft)
20.11.2013 16:52 4,6 C 3,3 C 86 % 1001,0 hPa 0,0 l/m 0 min 0 min 0,0 UV-I 0 W/m 7,7 km/h (2 Bft)
20.11.2013 16:54 4,6 C 3,3 C 86 % 1001,0 hPa 0,0 l/m 0 min 0 min 0,0 UV-I 0 W/m 7,7 km/h (2 Bft)
20.11.2013 16:56 4,6 C 3,3 C 87 % 1000,8 hPa 0,0 l/m 0 min 0 min 0,0 UV-I 0 W/m 10,3 km/h (2 Bft)
20.11.2013 16:58 4,5 C 3,3 C 87 % 1000,9 hPa 0,0 l/m 0 min 0 min 0,0 UV-I 0 W/m 10,3 km/h (2 Bft)
20.11.2013 17:00 4,5 C 3,3 C 87 % 1000,9 hPa 0,0 l/m 0 min 0 min 0,0 UV-I 0 W/m 10,3 km/h (2 Bft)
20.11.2013 17:02 4,5 C 3,3 C 87 % 1000,8 hPa 0,0 l/m 0 min 0 min 0,0 UV-I 0 W/m 7,7 km/h (2 Bft)
20.11.2013 17:04 4,5 C 3,3 C 87 % 1000,9 hPa 0,0 l/m 0 min 0 min 0,0 UV-I 0 W/m 15,4 km/h (3 Bft)
20.11.2013 17:06 4,4 C 3,3 C 87 % 1000,8 hPa 0,0 l/m 0 min 0 min 0,0 UV-I 0 W/m 7,7 km/h (2 Bft)
20.11.2013 17:08 4,4 C 3,3 C 87 % 1000,8 hPa 0,0 l/m 0 min 0 min 0,0 UV-I 0 W/m 7,7 km/h (2 Bft)
20.11.2013 17:10 4,4 C 3,3 C 87 % 1000,8 hPa 0,0 l/m 0 min 0 min 0,0 UV-I 0 W/m 10,3 km/h (2 Bft)
20.11.2013 17:12 4,4 C 3,3 C 87 % 1000,7 hPa 0,0 l/m 0 min 0 min 0,0 UV-I 0 W/m 12,9 km/h (3 Bft)
20.11.2013 17:14 4,4 C 3,3 C 87 % 1000,6 hPa 0,0 l/m 0 min 0 min 0,0 UV-I 0 W/m 10,3 km/h (2 Bft)
20.11.2013 17:16 4,4 C 3,3 C 87 % 1000,6 hPa 0,0 l/m 0 min 0 min 0,0 UV-I 0 W/m 15,4 km/h (3 Bft)
20.11.2013 17:18 4,4 C 3,3 C 87 % 1000,6 hPa 0,0 l/m 0 min 0 min 0,0 UV-I 0 W/m 10,3 km/h (2 Bft)
20.11.2013 17:20 4,4 C 3,3 C 87 % 1000,5 hPa 0,0 l/m 0 min 0 min 0,0 UV-I 0 W/m 7,7 km/h (2 Bft)
20.11.2013 17:22 4,4 C 3,3 C 87 % 1000,5 hPa 0,0 l/m 0 min 0 min 0,0 UV-I 0 W/m 7,7 km/h (2 Bft)
20.11.2013 17:24 4,3 C 2,8 C 87 % 1000,5 hPa 0,0 l/m 0 min 0 min 0,0 UV-I 0 W/m 12,9 km/h (3 Bft)
20.11.2013 17:26 4,3 C 2,8 C 87 % 1000,4 hPa 0,0 l/m 0 min 0 min 0,0 UV-I 0 W/m 10,3 km/h (2 Bft)
20.11.2013 17:28 4,3 C 2,8 C 87 % 1000,5 hPa 0,0 l/m 0 min 0 min 0,0 UV-I 0 W/m 7,7 km/h (2 Bft)
20.11.2013 17:30 4,3 C 2,8 C 87 % 1000,3 hPa 0,0 l/m 0 min 0 min 0,0 UV-I 0 W/m 10,3 km/h (2 Bft)
20.11.2013 17:32 4,3 C 2,8 C 87 % 1000,3 hPa 0,0 l/m 0 min 0 min 0,0 UV-I 0 W/m 10,3 km/h (2 Bft)
20.11.2013 17:34 4,3 C 2,8 C 87 % 1000,4 hPa 0,0 l/m 0 min 0 min 0,0 UV-I 0 W/m 12,9 km/h (3 Bft)
20.11.2013 17:36 4,3 C 2,8 C 86 % 1000,3 hPa 0,0 l/m 0 min 0 min 0,0 UV-I 0 W/m 2,6 km/h (1 Bft)
20.11.2013 17:38 4,3 C 2,8 C 86 % 1000,3 hPa 0,0 l/m 0 min 0 min 0,0 UV-I 0 W/m 12,9 km/h (3 Bft)
20.11.2013 17:40 4,3 C 2,8 C 86 % 1000,2 hPa 0,0 l/m 0 min 0 min 0,0 UV-I 0 W/m 10,3 km/h (2 Bft)
20.11.2013 17:42 4,3 C 2,8 C 86 % 1000,2 hPa 0,0 l/m 0 min 0 min 0,0 UV-I 0 W/m 12,9 km/h (3 Bft)
20.11.2013 17:44 4,2 C 2,8 C 86 % 1000,2 hPa 0,0 l/m 0 min 0 min 0,0 UV-I 0 W/m 12,9 km/h (3 Bft)
20.11.2013 17:46 4,2 C 2,8 C 86 % 1000,1 hPa 0,0 l/m 0 min 0 min 0,0 UV-I 0 W/m 12,9 km/h (3 Bft)
20.11.2013 17:48 4,2 C 2,8 C 86 % 1000,1 hPa 0,0 l/m 0 min 0 min 0,0 UV-I 0 W/m 12,9 km/h (3 Bft)
20.11.2013 17:50 4,2 C 2,8 C 86 % 1000,1 hPa 0,0 l/m 0 min 0 min 0,0 UV-I 0 W/m 18,0 km/h (3 Bft)
20.11.2013 17:52 4,2 C 2,8 C 86 % 1000,0 hPa 0,0 l/m 0 min 0 min 0,0 UV-I 0 W/m 15,4 km/h (3 Bft)
20.11.2013 17:54 4,2 C 2,8 C 86 % 1000,0 hPa 0,0 l/m 0 min 0 min 0,0 UV-I 0 W/m 18,0 km/h (3 Bft)
20.11.2013 17:56 4,2 C 2,8 C 86 % 1000,0 hPa 0,0 l/m 0 min 0 min 0,0 UV-I 0 W/m 18,0 km/h (3 Bft)
20.11.2013 17:58 4,2 C 2,8 C 86 % 999,9 hPa 0,0 l/m 0 min 0 min 0,0 UV-I 0 W/m 18,0 km/h (3 Bft)
20.11.2013 18:00 4,2 C 2,8 C 85 % 999,8 hPa 0,0 l/m 0 min 0 min 0,0 UV-I 0 W/m 23,2 km/h (4 Bft)
20.11.2013 18:02 4,2 C 2,8 C 85 % 999,8 hPa 0,0 l/m 0 min 0 min 0,0 UV-I 0 W/m 12,9 km/h (3 Bft)
20.11.2013 18:04 4,2 C 2,8 C 85 % 999,8 hPa 0,0 l/m 0 min 0 min 0,0 UV-I 0 W/m 15,4 km/h (3 Bft)
20.11.2013 18:06 4,2 C 2,8 C 84 % 999,8 hPa 0,0 l/m 0 min 0 min 0,0 UV-I 0 W/m 12,9 km/h (3 Bft)
20.11.2013 18:08 4,2 C 2,8 C 84 % 999,7 hPa 0,0 l/m 0 min 0 min 0,0 UV-I 0 W/m 18,0 km/h (3 Bft)
20.11.2013 18:10 4,2 C 2,8 C 84 % 999,7 hPa 0,0 l/m 0 min 0 min 0,0 UV-I 0 W/m 15,4 km/h (3 Bft)
20.11.2013 18:12 4,2 C 2,8 C 84 % 999,7 hPa 0,0 l/m 0 min 0 min 0,0 UV-I 0 W/m 12,9 km/h (3 Bft)
20.11.2013 18:14 4,2 C 2,8 C 83 % 999,7 hPa 0,0 l/m 0 min 0 min 0,0 UV-I 0 W/m 15,4 km/h (3 Bft)
20.11.2013 18:16 4,2 C 2,8 C 83 % 999,6 hPa 0,0 l/m 0 min 0 min 0,0 UV-I 0 W/m 15,4 km/h (3 Bft)
20.11.2013 18:18 4,2 C 2,8 C 83 % 999,6 hPa 0,0 l/m 0 min 0 min 0,0 UV-I 0 W/m 15,4 km/h (3 Bft)
20.11.2013 18:20 4,2 C 2,8 C 83 % 999,7 hPa 0,0 l/m 0 min 0 min 0,0 UV-I 0 W/m 33,5 km/h (5 Bft)
20.11.2013 18:22 4,2 C 2,8 C 83 % 999,6 hPa 0,0 l/m 0 min 0 min 0,0 UV-I 0 W/m 12,9 km/h (3 Bft)
20.11.2013 18:24 4,2 C 2,8 C 82 % 999,6 hPa 0,0 l/m 0 min 0 min 0,0 UV-I 0 W/m 18,0 km/h (3 Bft)
20.11.2013 18:26 4,2 C 2,8 C 82 % 999,6 hPa 0,0 l/m 0 min 0 min 0,0 UV-I 0 W/m 20,6 km/h (4 Bft)
20.11.2013 18:28 4,2 C 2,8 C 82 % 999,5 hPa 0,0 l/m 0 min 0 min 0,0 UV-I 0 W/m 28,3 km/h (4 Bft)
20.11.2013 18:30 4,2 C 2,8 C 82 % 999,5 hPa 0,0 l/m 0 min 0 min 0,0 UV-I 0 W/m 15,4 km/h (3 Bft)
20.11.2013 18:32 4,2 C 2,8 C 82 % 999,5 hPa 0,0 l/m 0 min 0 min 0,0 UV-I 0 W/m 25,7 km/h (4 Bft)
20.11.2013 18:34 4,2 C 2,8 C 82 % 999,5 hPa 0,0 l/m 0 min 0 min 0,0 UV-I 0 W/m 20,6 km/h (4 Bft)
20.11.2013 18:36 4,2 C 2,8 C 81 % 999,4 hPa 0,0 l/m 0 min 0 min 0,0 UV-I 0 W/m 18,0 km/h (3 Bft)
20.11.2013 18:38 4,2 C 2,8 C 81 % 999,3 hPa 0,0 l/m 0 min 0 min 0,0 UV-I 0 W/m 15,4 km/h (3 Bft)
20.11.2013 18:40 4,2 C 2,8 C 81 % 999,4 hPa 0,0 l/m 0 min 0 min 0,0 UV-I 0 W/m 15,4 km/h (3 Bft)
20.11.2013 18:42 4,3 C 2,8 C 81 % 999,3 hPa 0,0 l/m 0 min 0 min 0,0 UV-I 0 W/m 23,2 km/h (4 Bft)
20.11.2013 18:44 4,3 C 2,8 C 81 % 999,3 hPa 0,0 l/m 0 min 0 min 0,0 UV-I 0 W/m 20,6 km/h (4 Bft)
20.11.2013 18:46 4,3 C 2,8 C 81 % 999,2 hPa 0,0 l/m 0 min 0 min 0,0 UV-I 0 W/m 18,0 km/h (3 Bft)
20.11.2013 18:48 4,3 C 2,8 C 81 % 999,2 hPa 0,0 l/m 0 min 0 min 0,0 UV-I 0 W/m 12,9 km/h (3 Bft)
20.11.2013 18:50 4,3 C 2,8 C 81 % 999,2 hPa 0,0 l/m 0 min 0 min 0,0 UV-I 0 W/m 25,7 km/h (4 Bft)
20.11.2013 18:52 4,3 C 2,8 C 81 % 999,1 hPa 0,0 l/m 0 min 0 min 0,0 UV-I 0 W/m 20,6 km/h (4 Bft)
20.11.2013 18:54 4,3 C 2,8 C 81 % 999,2 hPa 0,0 l/m 0 min 0 min 0,0 UV-I 0 W/m 20,6 km/h (4 Bft)
20.11.2013 18:56 4,3 C 2,8 C 81 % 999,2 hPa 0,0 l/m 0 min 0 min 0,0 UV-I 0 W/m 15,4 km/h (3 Bft)
20.11.2013 18:58 4,3 C 2,8 C 80 % 999,2 hPa 0,0 l/m 0 min 0 min 0,0 UV-I 0 W/m 23,2 km/h (4 Bft)
20.11.2013 19:00 4,3 C 2,8 C 80 % 999,1 hPa 0,0 l/m 0 min 0 min 0,0 UV-I 0 W/m 23,2 km/h (4 Bft)
20.11.2013 19:02 4,3 C 2,8 C 80 % 999,1 hPa 0,0 l/m 0 min 0 min 0,0 UV-I 0 W/m 20,6 km/h (4 Bft)
20.11.2013 19:04 4,2 C 2,8 C 80 % 999,1 hPa 0,0 l/m 0 min 0 min 0,0 UV-I 0 W/m 25,7 km/h (4 Bft)
20.11.2013 19:06 4,3 C 2,8 C 80 % 999,1 hPa 0,0 l/m 0 min 0 min 0,0 UV-I 0 W/m 15,4 km/h (3 Bft)
20.11.2013 19:08 4,2 C 2,8 C 80 % 999,1 hPa 0,0 l/m 0 min 0 min 0,0 UV-I 0 W/m 23,2 km/h (4 Bft)
20.11.2013 19:10 4,2 C 2,8 C 80 % 999,1 hPa 0,0 l/m 0 min 0 min 0,0 UV-I 0 W/m 18,0 km/h (3 Bft)
20.11.2013 19:12 4,2 C 2,8 C 80 % 999,1 hPa 0,0 l/m 0 min 0 min 0,0 UV-I 0 W/m 15,4 km/h (3 Bft)
20.11.2013 19:14 4,2 C 2,8 C 80 % 999,1 hPa 0,0 l/m 0 min 0 min 0,0 UV-I 0 W/m 10,3 km/h (2 Bft)
20.11.2013 19:16 4,2 C 2,8 C 80 % 999,1 hPa 0,0 l/m 0 min 0 min 0,0 UV-I 0 W/m 15,4 km/h (3 Bft)
20.11.2013 19:18 4,2 C 2,8 C 81 % 999,0 hPa 0,0 l/m 0 min 0 min 0,0 UV-I 0 W/m 12,9 km/h (3 Bft)
20.11.2013 19:20 4,2 C 2,8 C 81 % 999,0 hPa 0,0 l/m 0 min 0 min 0,0 UV-I 0 W/m 15,4 km/h (3 Bft)
20.11.2013 19:22 4,2 C 2,8 C 81 % 999,0 hPa 0,0 l/m 0 min 0 min 0,0 UV-I 0 W/m 23,2 km/h (4 Bft)
20.11.2013 19:24 4,2 C 2,8 C 81 % 998,9 hPa 0,0 l/m 0 min 0 min 0,0 UV-I 0 W/m 23,2 km/h (4 Bft)
20.11.2013 19:26 4,2 C 2,8 C 81 % 999,0 hPa 0,0 l/m 0 min 0 min 0,0 UV-I 0 W/m 15,4 km/h (3 Bft)
20.11.2013 19:28 4,2 C 2,8 C 81 % 998,8 hPa 0,0 l/m 0 min 0 min 0,0 UV-I 0 W/m 18,0 km/h (3 Bft)
20.11.2013 19:30 4,1 C 2,8 C 81 % 998,7 hPa 0,0 l/m 0 min 0 min 0,0 UV-I 0 W/m 15,4 km/h (3 Bft)
20.11.2013 19:32 4,1 C 2,8 C 81 % 998,8 hPa 0,0 l/m 0 min 0 min 0,0 UV-I 0 W/m 18,0 km/h (3 Bft)
20.11.2013 19:34 4,1 C 2,8 C 81 % 998,7 hPa 0,0 l/m 0 min 0 min 0,0 UV-I 0 W/m 15,4 km/h (3 Bft)
20.11.2013 19:36 4,1 C 2,8 C 81 % 998,8 hPa 0,0 l/m 0 min 0 min 0,0 UV-I 0 W/m 10,3 km/h (2 Bft)
20.11.2013 19:38 4,1 C 2,8 C 81 % 998,7 hPa 0,0 l/m 0 min 0 min 0,0 UV-I 0 W/m 20,6 km/h (4 Bft)
20.11.2013 19:40 4,1 C 2,8 C 81 % 998,6 hPa 0,0 l/m 0 min 0 min 0,0 UV-I 0 W/m 18,0 km/h (3 Bft)
20.11.2013 19:42 4,1 C 2,8 C 81 % 998,6 hPa 0,0 l/m 0 min 0 min 0,0 UV-I 0 W/m 10,3 km/h (2 Bft)
20.11.2013 19:44 4,1 C 2,2 C 81 % 998,6 hPa 0,0 l/m 0 min 0 min 0,0 UV-I 0 W/m 7,7 km/h (2 Bft)
20.11.2013 19:46 4,1 C 2,2 C 81 % 998,5 hPa 0,0 l/m 0 min 0 min 0,0 UV-I 0 W/m 10,3 km/h (2 Bft)
20.11.2013 19:48 4,0 C 2,2 C 81 % 998,5 hPa 0,0 l/m 0 min 0 min 0,0 UV-I 0 W/m 18,0 km/h (3 Bft)
20.11.2013 19:50 4,0 C 2,2 C 81 % 998,5 hPa 0,0 l/m 0 min 0 min 0,0 UV-I 0 W/m 15,4 km/h (3 Bft)
20.11.2013 19:52 4,0 C 2,2 C 81 % 998,5 hPa 0,0 l/m 0 min 0 min 0,0 UV-I 0 W/m 18,0 km/h (3 Bft)
20.11.2013 19:54 4,0 C 2,2 C 81 % 998,5 hPa 0,0 l/m 0 min 0 min 0,0 UV-I 0 W/m 5,1 km/h (1 Bft)
20.11.2013 19:56 3,9 C 2,2 C 81 % 998,4 hPa 0,0 l/m 0 min 0 min 0,0 UV-I 0 W/m 18,0 km/h (3 Bft)
20.11.2013 19:58 3,9 C 2,2 C 81 % 998,4 hPa 0,0 l/m 0 min 0 min 0,0 UV-I 0 W/m 20,6 km/h (4 Bft)
20.11.2013 20:00 3,9 C 2,2 C 81 % 998,4 hPa 0,0 l/m 0 min 0 min 0,0 UV-I 0 W/m 12,9 km/h (3 Bft)
20.11.2013 20:02 3,9 C 2,2 C 81 % 998,4 hPa 0,0 l/m 0 min 0 min 0,0 UV-I 0 W/m 12,9 km/h (3 Bft)
20.11.2013 20:04 3,9 C 2,2 C 81 % 998,4 hPa 0,0 l/m 0 min 0 min 0,0 UV-I 0 W/m 10,3 km/h (2 Bft)
20.11.2013 20:06 3,9 C 2,2 C 81 % 998,4 hPa 0,0 l/m 0 min 0 min 0,0 UV-I 0 W/m 18,0 km/h (3 Bft)
20.11.2013 20:08 3,9 C 2,2 C 81 % 998,3 hPa 0,0 l/m 0 min 0 min 0,0 UV-I 0 W/m 25,7 km/h (4 Bft)
20.11.2013 20:10 3,8 C 2,2 C 81 % 998,3 hPa 0,0 l/m 0 min 0 min 0,0 UV-I 0 W/m 18,0 km/h (3 Bft)
20.11.2013 20:12 3,8 C 2,2 C 81 % 998,3 hPa 0,0 l/m 0 min 0 min 0,0 UV-I 0 W/m 23,2 km/h (4 Bft)
20.11.2013 20:14 3,8 C 2,2 C 81 % 998,3 hPa 0,0 l/m 0 min 0 min 0,0 UV-I 0 W/m 10,3 km/h (2 Bft)
20.11.2013 20:16 3,8 C 2,2 C 81 % 998,3 hPa 0,0 l/m 0 min 0 min 0,0 UV-I 0 W/m 12,9 km/h (3 Bft)
20.11.2013 20:18 3,8 C 2,2 C 81 % 998,3 hPa 0,0 l/m 0 min 0 min 0,0 UV-I 0 W/m 12,9 km/h (3 Bft)
20.11.2013 20:20 3,8 C 2,2 C 81 % 998,4 hPa 0,0 l/m 0 min 0 min 0,0 UV-I 0 W/m 15,4 km/h (3 Bft)
20.11.2013 20:22 3,8 C 2,2 C 81 % 998,3 hPa 0,0 l/m 0 min 0 min 0,0 UV-I 0 W/m 18,0 km/h (3 Bft)
20.11.2013 20:24 3,8 C 2,2 C 81 % 998,3 hPa 0,0 l/m 0 min 0 min 0,0 UV-I 0 W/m 20,6 km/h (4 Bft)
20.11.2013 20:26 3,8 C 2,2 C 81 % 998,2 hPa 0,0 l/m 0 min 0 min 0,0 UV-I 0 W/m 10,3 km/h (2 Bft)
20.11.2013 20:28 3,8 C 2,2 C 81 % 998,1 hPa 0,0 l/m 0 min 0 min 0,0 UV-I 0 W/m 10,3 km/h (2 Bft)
20.11.2013 20:30 3,7 C 2,2 C 81 % 998,2 hPa 0,0 l/m 0 min 0 min 0,0 UV-I 0 W/m 18,0 km/h (3 Bft)
20.11.2013 20:32 3,7 C 2,2 C 81 % 998,1 hPa 0,0 l/m 0 min 0 min 0,0 UV-I 0 W/m 10,3 km/h (2 Bft)
20.11.2013 20:34 3,7 C 2,2 C 81 % 998,1 hPa 0,0 l/m 0 min 0 min 0,0 UV-I 0 W/m 10,3 km/h (2 Bft)
20.11.2013 20:36 3,7 C 2,2 C 81 % 998,1 hPa 0,0 l/m 0 min 0 min 0,0 UV-I 0 W/m 12,9 km/h (3 Bft)
20.11.2013 20:38 3,7 C 2,2 C 81 % 998,1 hPa 0,0 l/m 0 min 0 min 0,0 UV-I 0 W/m 7,7 km/h (2 Bft)
20.11.2013 20:40 3,7 C 2,2 C 81 % 998,1 hPa 0,0 l/m 0 min 0 min 0,0 UV-I 0 W/m 12,9 km/h (3 Bft)
20.11.2013 20:42 3,7 C 2,2 C 81 % 998,1 hPa 0,0 l/m 0 min 0 min 0,0 UV-I 0 W/m 7,7 km/h (2 Bft)
20.11.2013 20:44 3,7 C 2,2 C 82 % 998,1 hPa 0,0 l/m 0 min 0 min 0,0 UV-I 0 W/m 18,0 km/h (3 Bft)
20.11.2013 20:46 3,7 C 2,2 C 82 % 998,1 hPa 0,0 l/m 0 min 0 min 0,0 UV-I 0 W/m 18,0 km/h (3 Bft)
20.11.2013 20:48 3,7 C 2,2 C 81 % 998,1 hPa 0,0 l/m 0 min 0 min 0,0 UV-I 0 W/m 7,7 km/h (2 Bft)
20.11.2013 20:50 3,7 C 2,8 C 81 % 998,2 hPa 0,0 l/m 0 min 0 min 0,0 UV-I 0 W/m 18,0 km/h (3 Bft)
20.11.2013 20:52 3,7 C 2,8 C 81 % 998,1 hPa 0,0 l/m 0 min 0 min 0,0 UV-I 0 W/m 20,6 km/h (4 Bft)
20.11.2013 20:54 3,7 C 2,8 C 81 % 998,2 hPa 0,0 l/m 0 min 0 min 0,0 UV-I 0 W/m 15,4 km/h (3 Bft)
20.11.2013 20:56 3,7 C 2,8 C 81 % 998,2 hPa 0,0 l/m 0 min 0 min 0,0 UV-I 0 W/m 15,4 km/h (3 Bft)
20.11.2013 20:58 3,7 C 2,8 C 81 % 998,1 hPa 0,0 l/m 0 min 0 min 0,0 UV-I 0 W/m 15,4 km/h (3 Bft)
20.11.2013 21:00 3,7 C 2,8 C 81 % 998,2 hPa 0,0 l/m 0 min 0 min 0,0 UV-I 0 W/m 12,9 km/h (3 Bft)
20.11.2013 21:02 3,7 C 2,8 C 81 % 998,2 hPa 0,0 l/m 0 min 2 min 0,0 UV-I 0 W/m 15,4 km/h (3 Bft)
20.11.2013 21:04 3,7 C 2,8 C 81 % 998,2 hPa 0,0 l/m 0 min 2 min 0,0 UV-I 0 W/m 25,7 km/h (4 Bft)
20.11.2013 21:06 3,8 C 2,2 C 81 % 998,1 hPa 0,0 l/m 0 min 2 min 0,0 UV-I 0 W/m 15,4 km/h (3 Bft)
20.11.2013 21:08 3,8 C 2,2 C 81 % 998,2 hPa 0,0 l/m 0 min 2 min 0,0 UV-I 0 W/m 15,4 km/h (3 Bft)
20.11.2013 21:10 3,8 C 2,2 C 81 % 998,2 hPa 0,0 l/m 0 min 2 min 0,0 UV-I 0 W/m 20,6 km/h (4 Bft)
20.11.2013 21:12 3,8 C 2,2 C 81 % 998,2 hPa 0,0 l/m 0 min 2 min 0,0 UV-I 0 W/m 15,4 km/h (3 Bft)
20.11.2013 21:14 3,8 C 2,2 C 81 % 998,1 hPa 0,0 l/m 0 min 2 min 0,0 UV-I 0 W/m 18,0 km/h (3 Bft)
20.11.2013 21:16 3,8 C 1,7 C 81 % 998,2 hPa 0,0 l/m 0 min 2 min 0,0 UV-I 0 W/m 30,9 km/h (5 Bft)
20.11.2013 21:18 3,7 C 1,7 C 81 % 998,1 hPa 0,0 l/m 0 min 0 min 0,0 UV-I 0 W/m 33,5 km/h (5 Bft)
20.11.2013 21:20 3,7 C 1,7 C 81 % 998,1 hPa 0,0 l/m 0 min 2 min 0,0 UV-I 0 W/m 20,6 km/h (4 Bft)
20.11.2013 21:22 3,7 C 1,7 C 82 % 998,1 hPa 0,0 l/m 0 min 0 min 0,0 UV-I 0 W/m 20,6 km/h (4 Bft)
20.11.2013 21:24 3,7 C 1,7 C 82 % 998,0 hPa 0,0 l/m 0 min 2 min 0,0 UV-I 0 W/m 23,2 km/h (4 Bft)
20.11.2013 21:26 3,7 C 1,7 C 82 % 998,1 hPa 0,0 l/m 0 min 2 min 0,0 UV-I 0 W/m 20,6 km/h (4 Bft)
20.11.2013 21:32 3,6 C 1,7 C 82 % 998,0 hPa 0,0 l/m 0 min 2 min 0,0 UV-I 0 W/m 30,9 km/h (5 Bft)
20.11.2013 21:34 3,6 C 1,7 C 82 % 998,0 hPa 0,0 l/m 0 min 2 min 0,0 UV-I 0 W/m 30,9 km/h (5 Bft)
20.11.2013 21:36 3,5 C 1,7 C 83 % 998,0 hPa 0,0 l/m 0 min 2 min 0,0 UV-I 0 W/m 20,6 km/h (4 Bft)
20.11.2013 21:38 3,5 C 1,7 C 83 % 997,9 hPa 0,0 l/m 0 min 2 min 0,0 UV-I 0 W/m 33,5 km/h (5 Bft)
20.11.2013 21:40 3,4 C 1,1 C 83 % 997,9 hPa 0,0 l/m 0 min 2 min 0,0 UV-I 0 W/m 33,5 km/h (5 Bft)
20.11.2013 21:46 3,4 C 1,1 C 84 % 997,8 hPa 0,0 l/m 0 min 2 min 0,0 UV-I 0 W/m 15,4 km/h (3 Bft)
20.11.2013 21:48 3,4 C 1,1 C 84 % 997,8 hPa 0,2 l/m 0 min 2 min 0,0 UV-I 0 W/m 25,7 km/h (4 Bft)
20.11.2013 21:50 3,4 C 1,1 C 84 % 997,8 hPa 0,0 l/m 0 min 2 min 0,0 UV-I 0 W/m 7,7 km/h (2 Bft)
20.11.2013 21:52 3,3 C 1,1 C 85 % 997,8 hPa 0,0 l/m 0 min 2 min 0,0 UV-I 0 W/m 10,3 km/h (2 Bft)
20.11.2013 21:54 3,3 C 1,1 C 85 % 997,7 hPa 0,0 l/m 0 min 2 min 0,0 UV-I 0 W/m 10,3 km/h (2 Bft)
20.11.2013 21:56 3,3 C 1,1 C 85 % 997,7 hPa 0,0 l/m 0 min 2 min 0,0 UV-I 0 W/m 23,2 km/h (4 Bft)
20.11.2013 21:58 3,3 C 1,1 C 85 % 997,7 hPa 0,0 l/m 0 min 2 min 0,0 UV-I 0 W/m 25,7 km/h (4 Bft)
20.11.2013 22:00 3,3 C 1,1 C 85 % 997,6 hPa 0,0 l/m 0 min 2 min 0,0 UV-I 0 W/m 20,6 km/h (4 Bft)
20.11.2013 22:02 3,3 C 1,1 C 85 % 997,6 hPa 0,0 l/m 0 min 2 min 0,0 UV-I 0 W/m 18,0 km/h (3 Bft)
20.11.2013 22:04 3,2 C 1,1 C 85 % 997,6 hPa 0,0 l/m 0 min 2 min 0,0 UV-I 0 W/m 20,6 km/h (4 Bft)
20.11.2013 22:06 3,2 C 1,1 C 85 % 997,7 hPa 0,0 l/m 0 min 2 min 0,0 UV-I 0 W/m 30,9 km/h (5 Bft)
20.11.2013 22:08 3,2 C 1,1 C 86 % 997,6 hPa 0,0 l/m 0 min 2 min 0,0 UV-I 0 W/m 30,9 km/h (5 Bft)
20.11.2013 22:10 3,2 C 1,1 C 86 % 997,7 hPa 0,0 l/m 0 min 2 min 0,0 UV-I 0 W/m 28,3 km/h (4 Bft)
20.11.2013 22:12 3,2 C 1,1 C 86 % 997,7 hPa 0,0 l/m 0 min 2 min 0,0 UV-I 0 W/m 25,7 km/h (4 Bft)
20.11.2013 22:14 3,2 C 1,1 C 86 % 997,7 hPa 0,0 l/m 0 min 2 min 0,0 UV-I 0 W/m 18,0 km/h (3 Bft)
20.11.2013 22:16 3,2 C 1,1 C 86 % 997,6 hPa 0,0 l/m 0 min 2 min 0,0 UV-I 0 W/m 10,3 km/h (2 Bft)
20.11.2013 22:18 3,2 C 1,1 C 86 % 997,6 hPa 0,0 l/m 0 min 2 min 0,0 UV-I 0 W/m 25,7 km/h (4 Bft)
20.11.2013 22:20 3,1 C 1,1 C 87 % 997,6 hPa 0,0 l/m 0 min 2 min 0,0 UV-I 0 W/m 28,3 km/h (4 Bft)
20.11.2013 22:22 3,1 C 1,1 C 87 % 997,6 hPa 0,0 l/m 0 min 2 min 0,0 UV-I 0 W/m 25,7 km/h (4 Bft)
20.11.2013 22:24 3,1 C 1,1 C 87 % 997,6 hPa 0,0 l/m 0 min 2 min 0,0 UV-I 0 W/m 23,2 km/h (4 Bft)
20.11.2013 22:26 3,1 C 1,1 C 87 % 997,6 hPa 0,0 l/m 0 min 2 min 0,0 UV-I 0 W/m 23,2 km/h (4 Bft)
20.11.2013 22:28 3,1 C 1,1 C 87 % 997,6 hPa 0,0 l/m 0 min 2 min 0,0 UV-I 0 W/m 18,0 km/h (3 Bft)
20.11.2013 22:30 3,1 C 1,1 C 88 % 997,5 hPa 0,0 l/m 0 min 2 min 0,0 UV-I 0 W/m 15,4 km/h (3 Bft)
20.11.2013 22:32 3,1 C 1,1 C 88 % 997,6 hPa 0,0 l/m 0 min 2 min 0,0 UV-I 0 W/m 12,9 km/h (3 Bft)
20.11.2013 22:34 3,0 C 1,1 C 88 % 997,5 hPa 0,0 l/m 0 min 2 min 0,0 UV-I 0 W/m 23,2 km/h (4 Bft)
20.11.2013 22:36 3,0 C 1,1 C 88 % 997,4 hPa 0,0 l/m 0 min 2 min 0,0 UV-I 0 W/m 12,9 km/h (3 Bft)
20.11.2013 22:38 2,9 C 1,1 C 88 % 997,5 hPa 0,0 l/m 0 min 2 min 0,0 UV-I 0 W/m 23,2 km/h (4 Bft)
20.11.2013 22:40 2,9 C 1,1 C 89 % 997,5 hPa 0,0 l/m 0 min 0 min 0,0 UV-I 0 W/m 12,9 km/h (3 Bft)
20.11.2013 22:42 2,9 C 1,1 C 89 % 997,4 hPa 0,0 l/m 0 min 0 min 0,0 UV-I 0 W/m 10,3 km/h (2 Bft)
20.11.2013 22:44 2,9 C 1,1 C 89 % 997,5 hPa 0,0 l/m 0 min 2 min 0,0 UV-I 0 W/m 18,0 km/h (3 Bft)
20.11.2013 22:46 2,9 C 1,1 C 89 % 997,5 hPa 0,0 l/m 0 min 2 min 0,0 UV-I 0 W/m 20,6 km/h (4 Bft)
20.11.2013 22:48 2,9 C 1,1 C 89 % 997,4 hPa 0,0 l/m 0 min 2 min 0,0 UV-I 0 W/m 18,0 km/h (3 Bft)
20.11.2013 22:50 2,8 C 1,1 C 89 % 997,3 hPa 0,0 l/m 0 min 2 min 0,0 UV-I 0 W/m 18,0 km/h (3 Bft)
20.11.2013 22:52 2,8 C 1,1 C 89 % 997,3 hPa 0,0 l/m 0 min 2 min 0,0 UV-I 0 W/m 15,4 km/h (3 Bft)
20.11.2013 22:54 2,8 C 1,1 C 90 % 997,3 hPa 0,0 l/m 0 min 2 min 0,0 UV-I 0 W/m 20,6 km/h (4 Bft)
20.11.2013 22:56 2,8 C 1,1 C 89 % 997,3 hPa 0,0 l/m 0 min 2 min 0,0 UV-I 0 W/m 18,0 km/h (3 Bft)
20.11.2013 22:58 2,7 C 1,1 C 89 % 997,2 hPa 0,0 l/m 0 min 2 min 0,0 UV-I 0 W/m 20,6 km/h (4 Bft)
20.11.2013 23:00 2,7 C 1,1 C 90 % 997,2 hPa 0,0 l/m 0 min 2 min 0,0 UV-I 0 W/m 23,2 km/h (4 Bft)
20.11.2013 23:02 2,7 C 1,1 C 90 % 997,2 hPa 0,0 l/m 0 min 2 min 0,0 UV-I 0 W/m 23,2 km/h (4 Bft)
20.11.2013 23:04 2,7 C 1,1 C 90 % 997,2 hPa 0,0 l/m 0 min 0 min 0,0 UV-I 0 W/m 28,3 km/h (4 Bft)
20.11.2013 23:06 2,6 C 1,1 C 90 % 997,1 hPa 0,0 l/m 0 min 2 min 0,0 UV-I 0 W/m 15,4 km/h (3 Bft)
20.11.2013 23:08 2,6 C 1,1 C 90 % 997,1 hPa 0,0 l/m 0 min 2 min 0,0 UV-I 0 W/m 12,9 km/h (3 Bft)
20.11.2013 23:10 2,6 C 1,1 C 90 % 997,1 hPa 0,0 l/m 0 min 2 min 0,0 UV-I 0 W/m 18,0 km/h (3 Bft)
20.11.2013 23:12 2,6 C 1,1 C 90 % 997,1 hPa 0,0 l/m 0 min 2 min 0,0 UV-I 0 W/m 18,0 km/h (3 Bft)
20.11.2013 23:14 2,6 C 1,1 C 90 % 997,0 hPa 0,0 l/m 0 min 0 min 0,0 UV-I 0 W/m 20,6 km/h (4 Bft)
20.11.2013 23:16 2,5 C 1,1 C 91 % 997,0 hPa 0,0 l/m 0 min 0 min 0,0 UV-I 0 W/m 18,0 km/h (3 Bft)
20.11.2013 23:18 2,5 C 1,1 C 91 % 997,0 hPa 0,0 l/m 0 min 0 min 0,0 UV-I 0 W/m 10,3 km/h (2 Bft)
20.11.2013 23:20 2,4 C 1,1 C 91 % 997,0 hPa 0,0 l/m 0 min 0 min 0,0 UV-I 0 W/m 10,3 km/h (2 Bft)
20.11.2013 23:22 2,5 C 1,1 C 91 % 997,0 hPa 0,0 l/m 0 min 0 min 0,0 UV-I 0 W/m 18,0 km/h (3 Bft)
20.11.2013 23:24 2,4 C 1,1 C 91 % 996,9 hPa 0,0 l/m 0 min 0 min 0,0 UV-I 0 W/m 7,7 km/h (2 Bft)
20.11.2013 23:26 2,4 C 1,1 C 91 % 997,0 hPa 0,0 l/m 0 min 0 min 0,0 UV-I 0 W/m 5,1 km/h (1 Bft)
20.11.2013 23:28 2,4 C 1,1 C 91 % 997,0 hPa 0,0 l/m 0 min 0 min 0,0 UV-I 0 W/m 5,1 km/h (1 Bft)
20.11.2013 23:30 2,4 C 1,1 C 91 % 997,0 hPa 0,0 l/m 0 min 0 min 0,0 UV-I 0 W/m 10,3 km/h (2 Bft)
20.11.2013 23:32 2,4 C 1,1 C 91 % 997,0 hPa 0,0 l/m 0 min 0 min 0,0 UV-I 0 W/m 7,7 km/h (2 Bft)
20.11.2013 23:34 2,4 C 1,1 C 91 % 996,9 hPa 0,0 l/m 0 min 0 min 0,0 UV-I 0 W/m 10,3 km/h (2 Bft)
20.11.2013 23:36 2,4 C 1,1 C 91 % 997,0 hPa 0,0 l/m 0 min 0 min 0,0 UV-I 0 W/m 12,9 km/h (3 Bft)
20.11.2013 23:38 2,4 C 1,1 C 91 % 997,0 hPa 0,0 l/m 0 min 0 min 0,0 UV-I 0 W/m 18,0 km/h (3 Bft)
20.11.2013 23:40 2,4 C 1,1 C 92 % 996,9 hPa 0,0 l/m 0 min 2 min 0,0 UV-I 0 W/m 12,9 km/h (3 Bft)
20.11.2013 23:42 2,4 C 1,1 C 92 % 996,8 hPa 0,0 l/m 0 min 2 min 0,0 UV-I 0 W/m 5,1 km/h (1 Bft)
20.11.2013 23:44 2,4 C 1,1 C 92 % 996,8 hPa 0,0 l/m 0 min 0 min 0,0 UV-I 0 W/m 18,0 km/h (3 Bft)
20.11.2013 23:46 2,4 C 1,1 C 92 % 996,8 hPa 0,0 l/m 0 min 0 min 0,0 UV-I 0 W/m 12,9 km/h (3 Bft)
20.11.2013 23:48 2,4 C 1,1 C 92 % 996,7 hPa 0,0 l/m 0 min 0 min 0,0 UV-I 0 W/m 12,9 km/h (3 Bft)
20.11.2013 23:50 2,4 C 1,1 C 92 % 996,7 hPa 0,0 l/m 0 min 0 min 0,0 UV-I 0 W/m 12,9 km/h (3 Bft)
20.11.2013 23:52 2,4 C 1,1 C 92 % 996,7 hPa 0,0 l/m 0 min 0 min 0,0 UV-I 0 W/m 18,0 km/h (3 Bft)
20.11.2013 23:54 2,4 C 1,1 C 92 % 996,6 hPa 0,0 l/m 0 min 0 min 0,0 UV-I 0 W/m 12,9 km/h (3 Bft)
20.11.2013 23:56 2,4 C 1,1 C 92 % 996,6 hPa 0,0 l/m 0 min 0 min 0,0 UV-I 0 W/m 10,3 km/h (2 Bft)
20.11.2013 23:58 2,4 C 1,1 C 92 % 996,6 hPa 0,0 l/m 0 min 0 min 0,0 UV-I 0 W/m 15,4 km/h (3 Bft)
_ Min-Zeit 07:54 07:16 18:58 23:54 - - - - - 00:08
Minimum _ 0,2 C -1,1 C 80 % 996,6 hPa - - - - - 0,0 km/h (0 Bft)
_ Max-Zeit 14:30 13:12 10:52 02:38 10:12 09:42 21:02 00:00 12:02 18:20
Maximum _ 5,7 C 5,0 C 98 % 1009,5 hPa 0,2 l/m 2 min 2 min 0,0 UV-I 302 W/m 33,5 km/h
S-SO (5 Bft)
Durchschnitt _ 3,3 C 1,9 C 90 % 1004,5 hPa #0,4 l/m #3:42 h #1:58 h 0,0 UV-I 128 W/m 7,9 km/h (2 Bft)
© 2013 W. Hausmann